<?xml version="1.0" encoding="UTF-8" standalone="no" ?>
<gpx xmlns="http://www.topografix.com/GPX/1/1" xmlns:xsi="http://www.w3.org/2001/XMLSchema-instance" xsi:schemaLocation="http://www.topografix.com/GPX/1/1 http://www.topografix.com/GPX/1/1/gpx.xsd" version="1.1" creator="VisuGPX - https://www.visugpx.com">
  <metadata>
    <name>ST_RAD_13km 300m</name>
    <desc><![CDATA[13km  -300m]]></desc>
  </metadata>
  <trk>
    <name><![CDATA[st RA 13km+]]></name>
    <trkseg>
      <trkpt lat="44.33565" lon="2.62981">
        <ele>641.8173828</ele>
        <time>2014-05-17T09:37:51Z</time>
      </trkpt>
      <trkpt lat="44.33567" lon="2.63008">
        <ele>642.2980957</ele>
        <time>2014-05-17T09:37:57Z</time>
      </trkpt>
      <trkpt lat="44.33568" lon="2.63025">
        <ele>639.8947754</ele>
        <time>2014-05-17T09:38:01Z</time>
      </trkpt>
      <trkpt lat="44.33568" lon="2.63033">
        <ele>638.4528809</ele>
        <time>2014-05-17T09:38:04Z</time>
      </trkpt>
      <trkpt lat="44.33561" lon="2.6305">
        <ele>638.9335938</ele>
        <time>2014-05-17T09:38:09Z</time>
      </trkpt>
      <trkpt lat="44.3356" lon="2.6307">
        <ele>637.4914551</ele>
        <time>2014-05-17T09:38:14Z</time>
      </trkpt>
      <trkpt lat="44.33556" lon="2.63098">
        <ele>637.4914551</ele>
        <time>2014-05-17T09:38:21Z</time>
      </trkpt>
      <trkpt lat="44.33551" lon="2.63114">
        <ele>637.4914551</ele>
        <time>2014-05-17T09:38:25Z</time>
      </trkpt>
      <trkpt lat="44.33543" lon="2.63132">
        <ele>636.5302734</ele>
        <time>2014-05-17T09:38:30Z</time>
      </trkpt>
      <trkpt lat="44.33536" lon="2.63148">
        <ele>637.0107422</ele>
        <time>2014-05-17T09:38:35Z</time>
      </trkpt>
      <trkpt lat="44.3353" lon="2.63167">
        <ele>639.4140625</ele>
        <time>2014-05-17T09:38:40Z</time>
      </trkpt>
      <trkpt lat="44.33527" lon="2.63182">
        <ele>641.3366699</ele>
        <time>2014-05-17T09:38:44Z</time>
      </trkpt>
      <trkpt lat="44.33523" lon="2.63201">
        <ele>642.2980957</ele>
        <time>2014-05-17T09:38:49Z</time>
      </trkpt>
      <trkpt lat="44.33517" lon="2.63226">
        <ele>642.2980957</ele>
        <time>2014-05-17T09:38:55Z</time>
      </trkpt>
      <trkpt lat="44.33512" lon="2.63244">
        <ele>640.855957</ele>
        <time>2014-05-17T09:39:00Z</time>
      </trkpt>
      <trkpt lat="44.33505" lon="2.63265">
        <ele>637.4914551</ele>
        <time>2014-05-17T09:39:06Z</time>
      </trkpt>
      <trkpt lat="44.33498" lon="2.6329">
        <ele>638.4528809</ele>
        <time>2014-05-17T09:39:12Z</time>
      </trkpt>
      <trkpt lat="44.33495" lon="2.63306">
        <ele>637.4914551</ele>
        <time>2014-05-17T09:39:16Z</time>
      </trkpt>
      <trkpt lat="44.3349" lon="2.63326">
        <ele>635.5686035</ele>
        <time>2014-05-17T09:39:21Z</time>
      </trkpt>
      <trkpt lat="44.33485" lon="2.63347">
        <ele>634.6074219</ele>
        <time>2014-05-17T09:39:26Z</time>
      </trkpt>
      <trkpt lat="44.33481" lon="2.63367">
        <ele>635.0881348</ele>
        <time>2014-05-17T09:39:31Z</time>
      </trkpt>
      <trkpt lat="44.33478" lon="2.63389">
        <ele>636.5302734</ele>
        <time>2014-05-17T09:39:36Z</time>
      </trkpt>
      <trkpt lat="44.33476" lon="2.63411">
        <ele>635.5686035</ele>
        <time>2014-05-17T09:39:41Z</time>
      </trkpt>
      <trkpt lat="44.33474" lon="2.63431">
        <ele>637.0107422</ele>
        <time>2014-05-17T09:39:46Z</time>
      </trkpt>
      <trkpt lat="44.3347" lon="2.63448">
        <ele>636.5302734</ele>
        <time>2014-05-17T09:39:50Z</time>
      </trkpt>
      <trkpt lat="44.33466" lon="2.63463">
        <ele>636.0495605</ele>
        <time>2014-05-17T09:39:54Z</time>
      </trkpt>
      <trkpt lat="44.3346" lon="2.63484">
        <ele>634.126709</ele>
        <time>2014-05-17T09:40:00Z</time>
      </trkpt>
      <trkpt lat="44.33454" lon="2.63504">
        <ele>633.1652832</ele>
        <time>2014-05-17T09:40:05Z</time>
      </trkpt>
      <trkpt lat="44.33447" lon="2.63527">
        <ele>632.6848145</ele>
        <time>2014-05-17T09:40:11Z</time>
      </trkpt>
      <trkpt lat="44.33445" lon="2.63548">
        <ele>631.2429199</ele>
        <time>2014-05-17T09:40:16Z</time>
      </trkpt>
      <trkpt lat="44.33442" lon="2.63569">
        <ele>629.3200684</ele>
        <time>2014-05-17T09:40:21Z</time>
      </trkpt>
      <trkpt lat="44.33435" lon="2.63586">
        <ele>629.8007813</ele>
        <time>2014-05-17T09:40:26Z</time>
      </trkpt>
      <trkpt lat="44.33421" lon="2.63602">
        <ele>629.8007813</ele>
        <time>2014-05-17T09:40:32Z</time>
      </trkpt>
      <trkpt lat="44.33413" lon="2.63612">
        <ele>630.762207</ele>
        <time>2014-05-17T09:40:36Z</time>
      </trkpt>
      <trkpt lat="44.33404" lon="2.63622">
        <ele>631.2429199</ele>
        <time>2014-05-17T09:40:41Z</time>
      </trkpt>
      <trkpt lat="44.33399" lon="2.63629">
        <ele>632.6848145</ele>
        <time>2014-05-17T09:40:45Z</time>
      </trkpt>
      <trkpt lat="44.33391" lon="2.63639">
        <ele>634.126709</ele>
        <time>2014-05-17T09:40:50Z</time>
      </trkpt>
      <trkpt lat="44.33383" lon="2.63653">
        <ele>636.5302734</ele>
        <time>2014-05-17T09:40:56Z</time>
      </trkpt>
      <trkpt lat="44.33374" lon="2.63668">
        <ele>637.0107422</ele>
        <time>2014-05-17T09:41:02Z</time>
      </trkpt>
      <trkpt lat="44.33366" lon="2.63681">
        <ele>638.4528809</ele>
        <time>2014-05-17T09:41:08Z</time>
      </trkpt>
      <trkpt lat="44.33359" lon="2.63695">
        <ele>640.3754883</ele>
        <time>2014-05-17T09:41:13Z</time>
      </trkpt>
      <trkpt lat="44.33353" lon="2.63712">
        <ele>642.7788086</ele>
        <time>2014-05-17T09:41:20Z</time>
      </trkpt>
      <trkpt lat="44.33349" lon="2.6373">
        <ele>645.1818848</ele>
        <time>2014-05-17T09:41:26Z</time>
      </trkpt>
      <trkpt lat="44.33346" lon="2.63748">
        <ele>646.6240234</ele>
        <time>2014-05-17T09:41:32Z</time>
      </trkpt>
      <trkpt lat="44.33341" lon="2.63763">
        <ele>647.5852051</ele>
        <time>2014-05-17T09:41:37Z</time>
      </trkpt>
      <trkpt lat="44.33337" lon="2.63778">
        <ele>649.0270996</ele>
        <time>2014-05-17T09:41:42Z</time>
      </trkpt>
      <trkpt lat="44.33331" lon="2.63799">
        <ele>650.4692383</ele>
        <time>2014-05-17T09:41:49Z</time>
      </trkpt>
      <trkpt lat="44.33327" lon="2.63813">
        <ele>651.4304199</ele>
        <time>2014-05-17T09:41:54Z</time>
      </trkpt>
      <trkpt lat="44.33323" lon="2.63829">
        <ele>653.3532715</ele>
        <time>2014-05-17T09:41:59Z</time>
      </trkpt>
      <trkpt lat="44.33318" lon="2.63843">
        <ele>654.3146973</ele>
        <time>2014-05-17T09:42:03Z</time>
      </trkpt>
      <trkpt lat="44.33316" lon="2.63858">
        <ele>656.7177734</ele>
        <time>2014-05-17T09:42:08Z</time>
      </trkpt>
      <trkpt lat="44.33311" lon="2.63879">
        <ele>657.6791992</ele>
        <time>2014-05-17T09:42:15Z</time>
      </trkpt>
      <trkpt lat="44.33305" lon="2.63901">
        <ele>659.1210938</ele>
        <time>2014-05-17T09:42:22Z</time>
      </trkpt>
      <trkpt lat="44.333" lon="2.63923">
        <ele>659.6018066</ele>
        <time>2014-05-17T09:42:29Z</time>
      </trkpt>
      <trkpt lat="44.33296" lon="2.63943">
        <ele>660.0822754</ele>
        <time>2014-05-17T09:42:35Z</time>
      </trkpt>
      <trkpt lat="44.33294" lon="2.63956">
        <ele>660.0822754</ele>
        <time>2014-05-17T09:42:39Z</time>
      </trkpt>
      <trkpt lat="44.33292" lon="2.63974">
        <ele>661.5244141</ele>
        <time>2014-05-17T09:42:44Z</time>
      </trkpt>
      <trkpt lat="44.33289" lon="2.63995">
        <ele>662.9663086</ele>
        <time>2014-05-17T09:42:50Z</time>
      </trkpt>
      <trkpt lat="44.33283" lon="2.64017">
        <ele>664.888916</ele>
        <time>2014-05-17T09:42:56Z</time>
      </trkpt>
      <trkpt lat="44.33279" lon="2.64035">
        <ele>665.8503418</ele>
        <time>2014-05-17T09:43:01Z</time>
      </trkpt>
      <trkpt lat="44.33276" lon="2.64049">
        <ele>666.8115234</ele>
        <time>2014-05-17T09:43:05Z</time>
      </trkpt>
      <trkpt lat="44.33275" lon="2.64067">
        <ele>667.7727051</ele>
        <time>2014-05-17T09:43:10Z</time>
      </trkpt>
      <trkpt lat="44.33275" lon="2.64073">
        <ele>667.7727051</ele>
        <time>2014-05-17T09:43:12Z</time>
      </trkpt>
      <trkpt lat="44.33272" lon="2.64096">
        <ele>667.7727051</ele>
        <time>2014-05-17T09:43:18Z</time>
      </trkpt>
      <trkpt lat="44.33267" lon="2.64112">
        <ele>666.8115234</ele>
        <time>2014-05-17T09:43:23Z</time>
      </trkpt>
      <trkpt lat="44.33264" lon="2.64129">
        <ele>668.2536621</ele>
        <time>2014-05-17T09:43:28Z</time>
      </trkpt>
      <trkpt lat="44.3326" lon="2.64145">
        <ele>667.7727051</ele>
        <time>2014-05-17T09:43:33Z</time>
      </trkpt>
      <trkpt lat="44.33257" lon="2.64163">
        <ele>667.7727051</ele>
        <time>2014-05-17T09:43:38Z</time>
      </trkpt>
      <trkpt lat="44.33252" lon="2.64185">
        <ele>668.734375</ele>
        <time>2014-05-17T09:43:44Z</time>
      </trkpt>
      <trkpt lat="44.33247" lon="2.642">
        <ele>669.2150879</ele>
        <time>2014-05-17T09:43:49Z</time>
      </trkpt>
      <trkpt lat="44.33241" lon="2.64216">
        <ele>669.6958008</ele>
        <time>2014-05-17T09:43:54Z</time>
      </trkpt>
      <trkpt lat="44.33234" lon="2.64236">
        <ele>670.6569824</ele>
        <time>2014-05-17T09:44:00Z</time>
      </trkpt>
      <trkpt lat="44.33227" lon="2.64256">
        <ele>672.5795898</ele>
        <time>2014-05-17T09:44:06Z</time>
      </trkpt>
      <trkpt lat="44.33221" lon="2.64272">
        <ele>673.5410156</ele>
        <time>2014-05-17T09:44:11Z</time>
      </trkpt>
      <trkpt lat="44.33214" lon="2.64287">
        <ele>673.5410156</ele>
        <time>2014-05-17T09:44:16Z</time>
      </trkpt>
      <trkpt lat="44.33207" lon="2.64302">
        <ele>673.5410156</ele>
        <time>2014-05-17T09:44:21Z</time>
      </trkpt>
      <trkpt lat="44.33199" lon="2.64321">
        <ele>674.5021973</ele>
        <time>2014-05-17T09:44:27Z</time>
      </trkpt>
      <trkpt lat="44.3319" lon="2.64343">
        <ele>675.4633789</ele>
        <time>2014-05-17T09:44:33Z</time>
      </trkpt>
      <trkpt lat="44.33184" lon="2.64362">
        <ele>676.4248047</ele>
        <time>2014-05-17T09:44:39Z</time>
      </trkpt>
      <trkpt lat="44.33176" lon="2.64382">
        <ele>675.9440918</ele>
        <time>2014-05-17T09:44:45Z</time>
      </trkpt>
      <trkpt lat="44.33171" lon="2.644">
        <ele>676.9055176</ele>
        <time>2014-05-17T09:44:50Z</time>
      </trkpt>
      <trkpt lat="44.33166" lon="2.64416">
        <ele>675.9440918</ele>
        <time>2014-05-17T09:44:55Z</time>
      </trkpt>
      <trkpt lat="44.33161" lon="2.64434">
        <ele>674.9829102</ele>
        <time>2014-05-17T09:45:00Z</time>
      </trkpt>
      <trkpt lat="44.33159" lon="2.64448">
        <ele>674.0214844</ele>
        <time>2014-05-17T09:45:04Z</time>
      </trkpt>
      <trkpt lat="44.33155" lon="2.64467">
        <ele>673.0603027</ele>
        <time>2014-05-17T09:45:10Z</time>
      </trkpt>
      <trkpt lat="44.33148" lon="2.64483">
        <ele>673.5410156</ele>
        <time>2014-05-17T09:45:15Z</time>
      </trkpt>
      <trkpt lat="44.33144" lon="2.64496">
        <ele>674.0214844</ele>
        <time>2014-05-17T09:45:19Z</time>
      </trkpt>
      <trkpt lat="44.33138" lon="2.64513">
        <ele>675.4633789</ele>
        <time>2014-05-17T09:45:24Z</time>
      </trkpt>
      <trkpt lat="44.33133" lon="2.64529">
        <ele>674.5021973</ele>
        <time>2014-05-17T09:45:29Z</time>
      </trkpt>
      <trkpt lat="44.33128" lon="2.64546">
        <ele>675.4633789</ele>
        <time>2014-05-17T09:45:34Z</time>
      </trkpt>
      <trkpt lat="44.3312" lon="2.64564">
        <ele>675.4633789</ele>
        <time>2014-05-17T09:45:39Z</time>
      </trkpt>
      <trkpt lat="44.33111" lon="2.6458">
        <ele>675.9440918</ele>
        <time>2014-05-17T09:45:44Z</time>
      </trkpt>
      <trkpt lat="44.33107" lon="2.64595">
        <ele>675.9440918</ele>
        <time>2014-05-17T09:45:48Z</time>
      </trkpt>
      <trkpt lat="44.33104" lon="2.64618">
        <ele>674.9829102</ele>
        <time>2014-05-17T09:45:54Z</time>
      </trkpt>
      <trkpt lat="44.33104" lon="2.64626">
        <ele>674.5021973</ele>
        <time>2014-05-17T09:45:56Z</time>
      </trkpt>
      <trkpt lat="44.33102" lon="2.64638">
        <ele>674.0214844</ele>
        <time>2014-05-17T09:45:59Z</time>
      </trkpt>
      <trkpt lat="44.33097" lon="2.64657">
        <ele>673.5410156</ele>
        <time>2014-05-17T09:46:04Z</time>
      </trkpt>
      <trkpt lat="44.33096" lon="2.64665">
        <ele>673.0603027</ele>
        <time>2014-05-17T09:46:06Z</time>
      </trkpt>
      <trkpt lat="44.33091" lon="2.64694">
        <ele>672.098877</ele>
        <time>2014-05-17T09:46:13Z</time>
      </trkpt>
      <trkpt lat="44.33087" lon="2.6471">
        <ele>671.6181641</ele>
        <time>2014-05-17T09:46:17Z</time>
      </trkpt>
      <trkpt lat="44.3308" lon="2.6473">
        <ele>671.1376953</ele>
        <time>2014-05-17T09:46:22Z</time>
      </trkpt>
      <trkpt lat="44.33075" lon="2.64749">
        <ele>672.098877</ele>
        <time>2014-05-17T09:46:27Z</time>
      </trkpt>
      <trkpt lat="44.33071" lon="2.64769">
        <ele>671.6181641</ele>
        <time>2014-05-17T09:46:32Z</time>
      </trkpt>
      <trkpt lat="44.3307" lon="2.64789">
        <ele>670.6569824</ele>
        <time>2014-05-17T09:46:37Z</time>
      </trkpt>
      <trkpt lat="44.33067" lon="2.64811">
        <ele>669.6958008</ele>
        <time>2014-05-17T09:46:42Z</time>
      </trkpt>
      <trkpt lat="44.33067" lon="2.64827">
        <ele>667.7727051</ele>
        <time>2014-05-17T09:46:46Z</time>
      </trkpt>
      <trkpt lat="44.33063" lon="2.64846">
        <ele>665.8503418</ele>
        <time>2014-05-17T09:46:51Z</time>
      </trkpt>
      <trkpt lat="44.33051" lon="2.64854">
        <ele>665.3696289</ele>
        <time>2014-05-17T09:46:55Z</time>
      </trkpt>
      <trkpt lat="44.33037" lon="2.64854">
        <ele>663.9274902</ele>
        <time>2014-05-17T09:46:59Z</time>
      </trkpt>
      <trkpt lat="44.33023" lon="2.6485">
        <ele>663.4470215</ele>
        <time>2014-05-17T09:47:04Z</time>
      </trkpt>
      <trkpt lat="44.33013" lon="2.64845">
        <ele>663.4470215</ele>
        <time>2014-05-17T09:47:08Z</time>
      </trkpt>
      <trkpt lat="44.33003" lon="2.6484">
        <ele>662.4855957</ele>
        <time>2014-05-17T09:47:12Z</time>
      </trkpt>
      <trkpt lat="44.32987" lon="2.64835">
        <ele>661.5244141</ele>
        <time>2014-05-17T09:47:18Z</time>
      </trkpt>
      <trkpt lat="44.32972" lon="2.64831">
        <ele>662.4855957</ele>
        <time>2014-05-17T09:47:23Z</time>
      </trkpt>
      <trkpt lat="44.32957" lon="2.64826">
        <ele>661.5244141</ele>
        <time>2014-05-17T09:47:28Z</time>
      </trkpt>
      <trkpt lat="44.32943" lon="2.64823">
        <ele>661.0437012</ele>
        <time>2014-05-17T09:47:33Z</time>
      </trkpt>
      <trkpt lat="44.32925" lon="2.64821">
        <ele>660.0822754</ele>
        <time>2014-05-17T09:47:39Z</time>
      </trkpt>
      <trkpt lat="44.32903" lon="2.64818">
        <ele>658.6403809</ele>
        <time>2014-05-17T09:47:46Z</time>
      </trkpt>
      <trkpt lat="44.32886" lon="2.64815">
        <ele>658.6403809</ele>
        <time>2014-05-17T09:47:52Z</time>
      </trkpt>
      <trkpt lat="44.32868" lon="2.64811">
        <ele>657.1984863</ele>
        <time>2014-05-17T09:47:58Z</time>
      </trkpt>
      <trkpt lat="44.3285" lon="2.64811">
        <ele>657.1984863</ele>
        <time>2014-05-17T09:48:04Z</time>
      </trkpt>
      <trkpt lat="44.32834" lon="2.64808">
        <ele>656.7177734</ele>
        <time>2014-05-17T09:48:10Z</time>
      </trkpt>
      <trkpt lat="44.32818" lon="2.64805">
        <ele>656.7177734</ele>
        <time>2014-05-17T09:48:16Z</time>
      </trkpt>
      <trkpt lat="44.32802" lon="2.64798">
        <ele>656.7177734</ele>
        <time>2014-05-17T09:48:22Z</time>
      </trkpt>
      <trkpt lat="44.32787" lon="2.64793">
        <ele>654.795166</ele>
        <time>2014-05-17T09:48:27Z</time>
      </trkpt>
      <trkpt lat="44.32771" lon="2.64791">
        <ele>652.3918457</ele>
        <time>2014-05-17T09:48:32Z</time>
      </trkpt>
      <trkpt lat="44.32752" lon="2.6479">
        <ele>649.9885254</ele>
        <time>2014-05-17T09:48:38Z</time>
      </trkpt>
      <trkpt lat="44.32736" lon="2.64787">
        <ele>647.1044922</ele>
        <time>2014-05-17T09:48:43Z</time>
      </trkpt>
      <trkpt lat="44.32721" lon="2.64788">
        <ele>645.1818848</ele>
        <time>2014-05-17T09:48:48Z</time>
      </trkpt>
      <trkpt lat="44.32702" lon="2.64787">
        <ele>643.2592773</ele>
        <time>2014-05-17T09:48:54Z</time>
      </trkpt>
      <trkpt lat="44.32693" lon="2.64782">
        <ele>641.8173828</ele>
        <time>2014-05-17T09:48:58Z</time>
      </trkpt>
      <trkpt lat="44.3268" lon="2.64783">
        <ele>641.3366699</ele>
        <time>2014-05-17T09:49:03Z</time>
      </trkpt>
      <trkpt lat="44.32677" lon="2.64784">
        <ele>640.855957</ele>
        <time>2014-05-17T09:49:04Z</time>
      </trkpt>
      <trkpt lat="44.3266" lon="2.64783">
        <ele>637.972168</ele>
        <time>2014-05-17T09:49:11Z</time>
      </trkpt>
      <trkpt lat="44.32657" lon="2.64783">
        <ele>637.972168</ele>
        <time>2014-05-17T09:49:12Z</time>
      </trkpt>
      <trkpt lat="44.32641" lon="2.64785">
        <ele>640.3754883</ele>
        <time>2014-05-17T09:49:18Z</time>
      </trkpt>
      <trkpt lat="44.32628" lon="2.64791">
        <ele>641.3366699</ele>
        <time>2014-05-17T09:49:23Z</time>
      </trkpt>
      <trkpt lat="44.32613" lon="2.64801">
        <ele>641.8173828</ele>
        <time>2014-05-17T09:49:29Z</time>
      </trkpt>
      <trkpt lat="44.32598" lon="2.64806">
        <ele>642.2980957</ele>
        <time>2014-05-17T09:49:35Z</time>
      </trkpt>
      <trkpt lat="44.32591" lon="2.64802">
        <ele>643.7399902</ele>
        <time>2014-05-17T09:49:38Z</time>
      </trkpt>
      <trkpt lat="44.32581" lon="2.64801">
        <ele>645.1818848</ele>
        <time>2014-05-17T09:49:42Z</time>
      </trkpt>
      <trkpt lat="44.3257" lon="2.64803">
        <ele>647.1044922</ele>
        <time>2014-05-17T09:49:46Z</time>
      </trkpt>
      <trkpt lat="44.32555" lon="2.64802">
        <ele>649.5078125</ele>
        <time>2014-05-17T09:49:52Z</time>
      </trkpt>
      <trkpt lat="44.32539" lon="2.64804">
        <ele>651.4304199</ele>
        <time>2014-05-17T09:49:58Z</time>
      </trkpt>
      <trkpt lat="44.32526" lon="2.64805">
        <ele>653.3532715</ele>
        <time>2014-05-17T09:50:03Z</time>
      </trkpt>
      <trkpt lat="44.3251" lon="2.64805">
        <ele>654.795166</ele>
        <time>2014-05-17T09:50:09Z</time>
      </trkpt>
      <trkpt lat="44.32499" lon="2.64804">
        <ele>656.7177734</ele>
        <time>2014-05-17T09:50:14Z</time>
      </trkpt>
      <trkpt lat="44.32481" lon="2.64801">
        <ele>659.6018066</ele>
        <time>2014-05-17T09:50:21Z</time>
      </trkpt>
      <trkpt lat="44.32467" lon="2.64795">
        <ele>662.4855957</ele>
        <time>2014-05-17T09:50:27Z</time>
      </trkpt>
      <trkpt lat="44.32455" lon="2.64789">
        <ele>664.4082031</ele>
        <time>2014-05-17T09:50:32Z</time>
      </trkpt>
      <trkpt lat="44.32445" lon="2.64784">
        <ele>665.3696289</ele>
        <time>2014-05-17T09:50:37Z</time>
      </trkpt>
      <trkpt lat="44.32428" lon="2.64778">
        <ele>667.2922363</ele>
        <time>2014-05-17T09:50:44Z</time>
      </trkpt>
      <trkpt lat="44.32414" lon="2.64771">
        <ele>669.6958008</ele>
        <time>2014-05-17T09:50:50Z</time>
      </trkpt>
      <trkpt lat="44.32399" lon="2.64764">
        <ele>671.1376953</ele>
        <time>2014-05-17T09:50:56Z</time>
      </trkpt>
      <trkpt lat="44.32385" lon="2.64757">
        <ele>673.0603027</ele>
        <time>2014-05-17T09:51:02Z</time>
      </trkpt>
      <trkpt lat="44.32373" lon="2.64753">
        <ele>673.5410156</ele>
        <time>2014-05-17T09:51:07Z</time>
      </trkpt>
      <trkpt lat="44.32361" lon="2.64751">
        <ele>673.5410156</ele>
        <time>2014-05-17T09:51:12Z</time>
      </trkpt>
      <trkpt lat="44.3235" lon="2.64754">
        <ele>673.5410156</ele>
        <time>2014-05-17T09:51:17Z</time>
      </trkpt>
      <trkpt lat="44.32336" lon="2.64763">
        <ele>673.5410156</ele>
        <time>2014-05-17T09:51:23Z</time>
      </trkpt>
      <trkpt lat="44.32327" lon="2.64775">
        <ele>673.5410156</ele>
        <time>2014-05-17T09:51:28Z</time>
      </trkpt>
      <trkpt lat="44.3232" lon="2.64788">
        <ele>674.0214844</ele>
        <time>2014-05-17T09:51:33Z</time>
      </trkpt>
      <trkpt lat="44.32311" lon="2.64807">
        <ele>674.5021973</ele>
        <time>2014-05-17T09:51:39Z</time>
      </trkpt>
      <trkpt lat="44.32303" lon="2.64823">
        <ele>675.4633789</ele>
        <time>2014-05-17T09:51:44Z</time>
      </trkpt>
      <trkpt lat="44.32298" lon="2.64829">
        <ele>676.4248047</ele>
        <time>2014-05-17T09:51:47Z</time>
      </trkpt>
      <trkpt lat="44.32287" lon="2.64819">
        <ele>675.4633789</ele>
        <time>2014-05-17T09:51:52Z</time>
      </trkpt>
      <trkpt lat="44.32284" lon="2.64808">
        <ele>676.4248047</ele>
        <time>2014-05-17T09:51:55Z</time>
      </trkpt>
      <trkpt lat="44.32276" lon="2.64788">
        <ele>676.9055176</ele>
        <time>2014-05-17T09:52:01Z</time>
      </trkpt>
      <trkpt lat="44.32269" lon="2.64766">
        <ele>676.9055176</ele>
        <time>2014-05-17T09:52:07Z</time>
      </trkpt>
      <trkpt lat="44.32265" lon="2.6475">
        <ele>676.4248047</ele>
        <time>2014-05-17T09:52:12Z</time>
      </trkpt>
      <trkpt lat="44.32264" lon="2.64734">
        <ele>674.9829102</ele>
        <time>2014-05-17T09:52:16Z</time>
      </trkpt>
      <trkpt lat="44.3226" lon="2.64715">
        <ele>674.0214844</ele>
        <time>2014-05-17T09:52:21Z</time>
      </trkpt>
      <trkpt lat="44.32251" lon="2.64698">
        <ele>672.5795898</ele>
        <time>2014-05-17T09:52:27Z</time>
      </trkpt>
      <trkpt lat="44.3224" lon="2.64687">
        <ele>672.5795898</ele>
        <time>2014-05-17T09:52:32Z</time>
      </trkpt>
      <trkpt lat="44.32229" lon="2.64678">
        <ele>674.0214844</ele>
        <time>2014-05-17T09:52:37Z</time>
      </trkpt>
      <trkpt lat="44.32218" lon="2.6467">
        <ele>675.4633789</ele>
        <time>2014-05-17T09:52:42Z</time>
      </trkpt>
      <trkpt lat="44.32206" lon="2.64664">
        <ele>678.3474121</ele>
        <time>2014-05-17T09:52:47Z</time>
      </trkpt>
      <trkpt lat="44.32191" lon="2.64661">
        <ele>681.2314453</ele>
        <time>2014-05-17T09:52:53Z</time>
      </trkpt>
      <trkpt lat="44.3218" lon="2.64659">
        <ele>683.1538086</ele>
        <time>2014-05-17T09:52:58Z</time>
      </trkpt>
      <trkpt lat="44.32165" lon="2.6466">
        <ele>684.5961914</ele>
        <time>2014-05-17T09:53:04Z</time>
      </trkpt>
      <trkpt lat="44.3215" lon="2.64659">
        <ele>686.9992676</ele>
        <time>2014-05-17T09:53:10Z</time>
      </trkpt>
      <trkpt lat="44.32147" lon="2.64659">
        <ele>687.4799805</ele>
        <time>2014-05-17T09:53:11Z</time>
      </trkpt>
      <trkpt lat="44.32131" lon="2.64659">
        <ele>688.9221191</ele>
        <time>2014-05-17T09:53:17Z</time>
      </trkpt>
      <trkpt lat="44.3212" lon="2.64654">
        <ele>689.4025879</ele>
        <time>2014-05-17T09:53:21Z</time>
      </trkpt>
      <trkpt lat="44.32103" lon="2.64647">
        <ele>688.4414063</ele>
        <time>2014-05-17T09:53:27Z</time>
      </trkpt>
      <trkpt lat="44.32093" lon="2.64643">
        <ele>686.5187988</ele>
        <time>2014-05-17T09:53:31Z</time>
      </trkpt>
      <trkpt lat="44.32076" lon="2.64641">
        <ele>685.0769043</ele>
        <time>2014-05-17T09:53:37Z</time>
      </trkpt>
      <trkpt lat="44.32065" lon="2.64638">
        <ele>684.5961914</ele>
        <time>2014-05-17T09:53:41Z</time>
      </trkpt>
      <trkpt lat="44.32053" lon="2.64636">
        <ele>683.6345215</ele>
        <time>2014-05-17T09:53:45Z</time>
      </trkpt>
      <trkpt lat="44.32039" lon="2.64632">
        <ele>681.2314453</ele>
        <time>2014-05-17T09:53:50Z</time>
      </trkpt>
      <trkpt lat="44.32024" lon="2.64631">
        <ele>678.828125</ele>
        <time>2014-05-17T09:53:55Z</time>
      </trkpt>
      <trkpt lat="44.32013" lon="2.64631">
        <ele>677.3862305</ele>
        <time>2014-05-17T09:53:59Z</time>
      </trkpt>
      <trkpt lat="44.32" lon="2.6463">
        <ele>675.9440918</ele>
        <time>2014-05-17T09:54:04Z</time>
      </trkpt>
      <trkpt lat="44.31986" lon="2.64622">
        <ele>674.5021973</ele>
        <time>2014-05-17T09:54:09Z</time>
      </trkpt>
      <trkpt lat="44.31969" lon="2.64616">
        <ele>673.5410156</ele>
        <time>2014-05-17T09:54:15Z</time>
      </trkpt>
      <trkpt lat="44.31957" lon="2.64613">
        <ele>671.6181641</ele>
        <time>2014-05-17T09:54:19Z</time>
      </trkpt>
      <trkpt lat="44.31941" lon="2.64608">
        <ele>667.7727051</ele>
        <time>2014-05-17T09:54:25Z</time>
      </trkpt>
      <trkpt lat="44.31925" lon="2.64609">
        <ele>663.9274902</ele>
        <time>2014-05-17T09:54:30Z</time>
      </trkpt>
      <trkpt lat="44.31914" lon="2.64611">
        <ele>662.9663086</ele>
        <time>2014-05-17T09:54:34Z</time>
      </trkpt>
      <trkpt lat="44.31898" lon="2.64613">
        <ele>661.5244141</ele>
        <time>2014-05-17T09:54:39Z</time>
      </trkpt>
      <trkpt lat="44.31883" lon="2.64617">
        <ele>661.0437012</ele>
        <time>2014-05-17T09:54:44Z</time>
      </trkpt>
      <trkpt lat="44.31871" lon="2.64616">
        <ele>661.0437012</ele>
        <time>2014-05-17T09:54:48Z</time>
      </trkpt>
      <trkpt lat="44.31862" lon="2.64615">
        <ele>660.5629883</ele>
        <time>2014-05-17T09:54:51Z</time>
      </trkpt>
      <trkpt lat="44.31859" lon="2.64614">
        <ele>660.0822754</ele>
        <time>2014-05-17T09:54:52Z</time>
      </trkpt>
      <trkpt lat="44.31847" lon="2.64596">
        <ele>660.0822754</ele>
        <time>2014-05-17T09:54:58Z</time>
      </trkpt>
      <trkpt lat="44.3184" lon="2.64582">
        <ele>659.6018066</ele>
        <time>2014-05-17T09:55:02Z</time>
      </trkpt>
      <trkpt lat="44.3183" lon="2.64564">
        <ele>659.1210938</ele>
        <time>2014-05-17T09:55:08Z</time>
      </trkpt>
      <trkpt lat="44.31819" lon="2.64553">
        <ele>659.1210938</ele>
        <time>2014-05-17T09:55:13Z</time>
      </trkpt>
      <trkpt lat="44.31808" lon="2.6454">
        <ele>658.1599121</ele>
        <time>2014-05-17T09:55:18Z</time>
      </trkpt>
      <trkpt lat="44.31805" lon="2.64538">
        <ele>657.6791992</ele>
        <time>2014-05-17T09:55:19Z</time>
      </trkpt>
      <trkpt lat="44.3179" lon="2.64527">
        <ele>657.1984863</ele>
        <time>2014-05-17T09:55:25Z</time>
      </trkpt>
      <trkpt lat="44.31771" lon="2.64522">
        <ele>656.2370605</ele>
        <time>2014-05-17T09:55:31Z</time>
      </trkpt>
      <trkpt lat="44.31756" lon="2.64521">
        <ele>655.7565918</ele>
        <time>2014-05-17T09:55:36Z</time>
      </trkpt>
      <trkpt lat="44.31742" lon="2.6452">
        <ele>655.2758789</ele>
        <time>2014-05-17T09:55:41Z</time>
      </trkpt>
      <trkpt lat="44.31731" lon="2.64518">
        <ele>654.3146973</ele>
        <time>2014-05-17T09:55:45Z</time>
      </trkpt>
      <trkpt lat="44.31716" lon="2.64518">
        <ele>652.3918457</ele>
        <time>2014-05-17T09:55:50Z</time>
      </trkpt>
      <trkpt lat="44.31701" lon="2.64517">
        <ele>650.4692383</ele>
        <time>2014-05-17T09:55:55Z</time>
      </trkpt>
      <trkpt lat="44.31684" lon="2.64516">
        <ele>647.5852051</ele>
        <time>2014-05-17T09:56:01Z</time>
      </trkpt>
      <trkpt lat="44.31672" lon="2.64512">
        <ele>645.1818848</ele>
        <time>2014-05-17T09:56:05Z</time>
      </trkpt>
      <trkpt lat="44.31658" lon="2.64505">
        <ele>643.2592773</ele>
        <time>2014-05-17T09:56:10Z</time>
      </trkpt>
      <trkpt lat="44.31647" lon="2.64494">
        <ele>642.2980957</ele>
        <time>2014-05-17T09:56:14Z</time>
      </trkpt>
      <trkpt lat="44.31633" lon="2.64486">
        <ele>640.3754883</ele>
        <time>2014-05-17T09:56:19Z</time>
      </trkpt>
      <trkpt lat="44.31631" lon="2.64485">
        <ele>639.4140625</ele>
        <time>2014-05-17T09:56:20Z</time>
      </trkpt>
      <trkpt lat="44.31621" lon="2.64496">
        <ele>637.4914551</ele>
        <time>2014-05-17T09:56:24Z</time>
      </trkpt>
      <trkpt lat="44.31611" lon="2.64516">
        <ele>635.0881348</ele>
        <time>2014-05-17T09:56:30Z</time>
      </trkpt>
      <trkpt lat="44.31597" lon="2.64541">
        <ele>632.6848145</ele>
        <time>2014-05-17T09:56:38Z</time>
      </trkpt>
      <trkpt lat="44.31585" lon="2.64557">
        <ele>631.7233887</ele>
        <time>2014-05-17T09:56:43Z</time>
      </trkpt>
      <trkpt lat="44.31574" lon="2.64572">
        <ele>630.762207</ele>
        <time>2014-05-17T09:56:48Z</time>
      </trkpt>
      <trkpt lat="44.31566" lon="2.64584">
        <ele>631.2429199</ele>
        <time>2014-05-17T09:56:53Z</time>
      </trkpt>
      <trkpt lat="44.31568" lon="2.64599">
        <ele>634.126709</ele>
        <time>2014-05-17T09:56:57Z</time>
      </trkpt>
      <trkpt lat="44.31571" lon="2.64619">
        <ele>637.0107422</ele>
        <time>2014-05-17T09:57:03Z</time>
      </trkpt>
      <trkpt lat="44.31568" lon="2.6464">
        <ele>637.972168</ele>
        <time>2014-05-17T09:57:09Z</time>
      </trkpt>
      <trkpt lat="44.31565" lon="2.64656">
        <ele>640.3754883</ele>
        <time>2014-05-17T09:57:14Z</time>
      </trkpt>
      <trkpt lat="44.31562" lon="2.64663">
        <ele>641.3366699</ele>
        <time>2014-05-17T09:57:16Z</time>
      </trkpt>
      <trkpt lat="44.31552" lon="2.64678">
        <ele>641.8173828</ele>
        <time>2014-05-17T09:57:22Z</time>
      </trkpt>
      <trkpt lat="44.31546" lon="2.64689">
        <ele>644.7011719</ele>
        <time>2014-05-17T09:57:27Z</time>
      </trkpt>
      <trkpt lat="44.31542" lon="2.64706">
        <ele>645.6625977</ele>
        <time>2014-05-17T09:57:33Z</time>
      </trkpt>
      <trkpt lat="44.31544" lon="2.64721">
        <ele>646.6240234</ele>
        <time>2014-05-17T09:57:38Z</time>
      </trkpt>
      <trkpt lat="44.3155" lon="2.64735">
        <ele>649.0270996</ele>
        <time>2014-05-17T09:57:43Z</time>
      </trkpt>
      <trkpt lat="44.31555" lon="2.6475">
        <ele>651.4304199</ele>
        <time>2014-05-17T09:57:49Z</time>
      </trkpt>
      <trkpt lat="44.31557" lon="2.64756">
        <ele>652.3918457</ele>
        <time>2014-05-17T09:57:51Z</time>
      </trkpt>
      <trkpt lat="44.31562" lon="2.64769">
        <ele>652.8725586</ele>
        <time>2014-05-17T09:57:56Z</time>
      </trkpt>
      <trkpt lat="44.31562" lon="2.64775">
        <ele>653.8339844</ele>
        <time>2014-05-17T09:57:58Z</time>
      </trkpt>
      <trkpt lat="44.31563" lon="2.6478">
        <ele>654.795166</ele>
        <time>2014-05-17T09:58:00Z</time>
      </trkpt>
      <trkpt lat="44.31564" lon="2.64796">
        <ele>655.7565918</ele>
        <time>2014-05-17T09:58:05Z</time>
      </trkpt>
      <trkpt lat="44.31564" lon="2.64798">
        <ele>656.2370605</ele>
        <time>2014-05-17T09:58:06Z</time>
      </trkpt>
      <trkpt lat="44.31567" lon="2.64818">
        <ele>657.6791992</ele>
        <time>2014-05-17T09:58:13Z</time>
      </trkpt>
      <trkpt lat="44.31569" lon="2.64838">
        <ele>660.5629883</ele>
        <time>2014-05-17T09:58:20Z</time>
      </trkpt>
      <trkpt lat="44.31568" lon="2.64853">
        <ele>661.0437012</ele>
        <time>2014-05-17T09:58:25Z</time>
      </trkpt>
      <trkpt lat="44.31568" lon="2.64873">
        <ele>662.005127</ele>
        <time>2014-05-17T09:58:32Z</time>
      </trkpt>
      <trkpt lat="44.31572" lon="2.6489">
        <ele>663.9274902</ele>
        <time>2014-05-17T09:58:38Z</time>
      </trkpt>
      <trkpt lat="44.31576" lon="2.64909">
        <ele>666.3308105</ele>
        <time>2014-05-17T09:58:45Z</time>
      </trkpt>
      <trkpt lat="44.31577" lon="2.64926">
        <ele>667.7727051</ele>
        <time>2014-05-17T09:58:51Z</time>
      </trkpt>
      <trkpt lat="44.31578" lon="2.64941">
        <ele>669.2150879</ele>
        <time>2014-05-17T09:58:56Z</time>
      </trkpt>
      <trkpt lat="44.31577" lon="2.64955">
        <ele>671.6181641</ele>
        <time>2014-05-17T09:59:01Z</time>
      </trkpt>
      <trkpt lat="44.31577" lon="2.64959">
        <ele>671.6181641</ele>
        <time>2014-05-17T09:59:02Z</time>
      </trkpt>
      <trkpt lat="44.31577" lon="2.64976">
        <ele>673.5410156</ele>
        <time>2014-05-17T09:59:07Z</time>
      </trkpt>
      <trkpt lat="44.31577" lon="2.64986">
        <ele>674.9829102</ele>
        <time>2014-05-17T09:59:11Z</time>
      </trkpt>
      <trkpt lat="44.31572" lon="2.64996">
        <ele>674.5021973</ele>
        <time>2014-05-17T09:59:16Z</time>
      </trkpt>
      <trkpt lat="44.31567" lon="2.65008">
        <ele>674.5021973</ele>
        <time>2014-05-17T09:59:20Z</time>
      </trkpt>
      <trkpt lat="44.31552" lon="2.65027">
        <ele>674.0214844</ele>
        <time>2014-05-17T09:59:27Z</time>
      </trkpt>
      <trkpt lat="44.31549" lon="2.65028">
        <ele>674.0214844</ele>
        <time>2014-05-17T09:59:28Z</time>
      </trkpt>
      <trkpt lat="44.3154" lon="2.65035">
        <ele>673.5410156</ele>
        <time>2014-05-17T09:59:33Z</time>
      </trkpt>
      <trkpt lat="44.31528" lon="2.65044">
        <ele>674.5021973</ele>
        <time>2014-05-17T09:59:38Z</time>
      </trkpt>
      <trkpt lat="44.31517" lon="2.6505">
        <ele>674.9829102</ele>
        <time>2014-05-17T09:59:43Z</time>
      </trkpt>
      <trkpt lat="44.31506" lon="2.65053">
        <ele>675.9440918</ele>
        <time>2014-05-17T09:59:48Z</time>
      </trkpt>
      <trkpt lat="44.31493" lon="2.65057">
        <ele>678.3474121</ele>
        <time>2014-05-17T09:59:54Z</time>
      </trkpt>
      <trkpt lat="44.31481" lon="2.65062">
        <ele>680.7507324</ele>
        <time>2014-05-17T10:00:00Z</time>
      </trkpt>
      <trkpt lat="44.31468" lon="2.65066">
        <ele>683.1538086</ele>
        <time>2014-05-17T10:00:06Z</time>
      </trkpt>
      <trkpt lat="44.31459" lon="2.65074">
        <ele>684.1154785</ele>
        <time>2014-05-17T10:00:11Z</time>
      </trkpt>
      <trkpt lat="44.31447" lon="2.6508">
        <ele>685.0769043</ele>
        <time>2014-05-17T10:00:17Z</time>
      </trkpt>
      <trkpt lat="44.31439" lon="2.65082">
        <ele>686.0380859</ele>
        <time>2014-05-17T10:00:22Z</time>
      </trkpt>
      <trkpt lat="44.31432" lon="2.65086">
        <ele>686.5187988</ele>
        <time>2014-05-17T10:00:27Z</time>
      </trkpt>
      <trkpt lat="44.31424" lon="2.65091">
        <ele>687.4799805</ele>
        <time>2014-05-17T10:00:32Z</time>
      </trkpt>
      <trkpt lat="44.31415" lon="2.65099">
        <ele>687.9606934</ele>
        <time>2014-05-17T10:00:37Z</time>
      </trkpt>
      <trkpt lat="44.31402" lon="2.65112">
        <ele>687.9606934</ele>
        <time>2014-05-17T10:00:43Z</time>
      </trkpt>
      <trkpt lat="44.3139" lon="2.65127">
        <ele>689.4025879</ele>
        <time>2014-05-17T10:00:49Z</time>
      </trkpt>
      <trkpt lat="44.31379" lon="2.65138">
        <ele>687.4799805</ele>
        <time>2014-05-17T10:00:55Z</time>
      </trkpt>
      <trkpt lat="44.31371" lon="2.65148">
        <ele>687.4799805</ele>
        <time>2014-05-17T10:01:00Z</time>
      </trkpt>
      <trkpt lat="44.31363" lon="2.65163">
        <ele>688.9221191</ele>
        <time>2014-05-17T10:01:05Z</time>
      </trkpt>
      <trkpt lat="44.31349" lon="2.65184">
        <ele>688.9221191</ele>
        <time>2014-05-17T10:01:12Z</time>
      </trkpt>
      <trkpt lat="44.31343" lon="2.65192">
        <ele>690.3640137</ele>
        <time>2014-05-17T10:01:16Z</time>
      </trkpt>
      <trkpt lat="44.31336" lon="2.652">
        <ele>690.3640137</ele>
        <time>2014-05-17T10:01:20Z</time>
      </trkpt>
      <trkpt lat="44.31325" lon="2.65213">
        <ele>690.8444824</ele>
        <time>2014-05-17T10:01:25Z</time>
      </trkpt>
      <trkpt lat="44.31313" lon="2.65224">
        <ele>688.4414063</ele>
        <time>2014-05-17T10:01:30Z</time>
      </trkpt>
      <trkpt lat="44.31297" lon="2.65242">
        <ele>687.9606934</ele>
        <time>2014-05-17T10:01:37Z</time>
      </trkpt>
      <trkpt lat="44.31288" lon="2.65255">
        <ele>688.4414063</ele>
        <time>2014-05-17T10:01:41Z</time>
      </trkpt>
      <trkpt lat="44.31277" lon="2.65269">
        <ele>687.4799805</ele>
        <time>2014-05-17T10:01:46Z</time>
      </trkpt>
      <trkpt lat="44.31265" lon="2.65282">
        <ele>685.557373</ele>
        <time>2014-05-17T10:01:51Z</time>
      </trkpt>
      <trkpt lat="44.31254" lon="2.65297">
        <ele>684.1154785</ele>
        <time>2014-05-17T10:01:56Z</time>
      </trkpt>
      <trkpt lat="44.31241" lon="2.65311">
        <ele>681.7119141</ele>
        <time>2014-05-17T10:02:01Z</time>
      </trkpt>
      <trkpt lat="44.31227" lon="2.65321">
        <ele>678.3474121</ele>
        <time>2014-05-17T10:02:06Z</time>
      </trkpt>
      <trkpt lat="44.31217" lon="2.65331">
        <ele>675.9440918</ele>
        <time>2014-05-17T10:02:10Z</time>
      </trkpt>
      <trkpt lat="44.312" lon="2.65353">
        <ele>673.0603027</ele>
        <time>2014-05-17T10:02:17Z</time>
      </trkpt>
      <trkpt lat="44.31185" lon="2.6537">
        <ele>671.1376953</ele>
        <time>2014-05-17T10:02:23Z</time>
      </trkpt>
      <trkpt lat="44.31173" lon="2.65375">
        <ele>669.6958008</ele>
        <time>2014-05-17T10:02:27Z</time>
      </trkpt>
      <trkpt lat="44.3117" lon="2.65376">
        <ele>669.2150879</ele>
        <time>2014-05-17T10:02:28Z</time>
      </trkpt>
      <trkpt lat="44.31161" lon="2.65376">
        <ele>667.2922363</ele>
        <time>2014-05-17T10:02:32Z</time>
      </trkpt>
      <trkpt lat="44.31151" lon="2.65378">
        <ele>665.8503418</ele>
        <time>2014-05-17T10:02:35Z</time>
      </trkpt>
      <trkpt lat="44.31134" lon="2.65381">
        <ele>663.4470215</ele>
        <time>2014-05-17T10:02:39Z</time>
      </trkpt>
      <trkpt lat="44.31127" lon="2.6538">
        <ele>662.9663086</ele>
        <time>2014-05-17T10:02:42Z</time>
      </trkpt>
      <trkpt lat="44.31118" lon="2.65377">
        <ele>661.0437012</ele>
        <time>2014-05-17T10:02:46Z</time>
      </trkpt>
      <trkpt lat="44.31109" lon="2.65365">
        <ele>656.2370605</ele>
        <time>2014-05-17T10:02:51Z</time>
      </trkpt>
      <trkpt lat="44.31099" lon="2.65362">
        <ele>655.7565918</ele>
        <time>2014-05-17T10:02:55Z</time>
      </trkpt>
      <trkpt lat="44.31082" lon="2.65367">
        <ele>656.7177734</ele>
        <time>2014-05-17T10:03:01Z</time>
      </trkpt>
      <trkpt lat="44.3107" lon="2.65371">
        <ele>656.7177734</ele>
        <time>2014-05-17T10:03:05Z</time>
      </trkpt>
      <trkpt lat="44.31058" lon="2.65377">
        <ele>655.2758789</ele>
        <time>2014-05-17T10:03:09Z</time>
      </trkpt>
      <trkpt lat="44.31047" lon="2.65384">
        <ele>653.8339844</ele>
        <time>2014-05-17T10:03:13Z</time>
      </trkpt>
      <trkpt lat="44.31032" lon="2.65392">
        <ele>650.4692383</ele>
        <time>2014-05-17T10:03:19Z</time>
      </trkpt>
      <trkpt lat="44.31022" lon="2.65396">
        <ele>649.0270996</ele>
        <time>2014-05-17T10:03:23Z</time>
      </trkpt>
      <trkpt lat="44.31018" lon="2.65395">
        <ele>648.065918</ele>
        <time>2014-05-17T10:03:25Z</time>
      </trkpt>
      <trkpt lat="44.31007" lon="2.65399">
        <ele>645.6625977</ele>
        <time>2014-05-17T10:03:30Z</time>
      </trkpt>
      <trkpt lat="44.30991" lon="2.65413">
        <ele>641.3366699</ele>
        <time>2014-05-17T10:03:36Z</time>
      </trkpt>
      <trkpt lat="44.30984" lon="2.65417">
        <ele>637.972168</ele>
        <time>2014-05-17T10:03:39Z</time>
      </trkpt>
      <trkpt lat="44.30971" lon="2.65426">
        <ele>637.0107422</ele>
        <time>2014-05-17T10:03:43Z</time>
      </trkpt>
      <trkpt lat="44.30959" lon="2.65439">
        <ele>635.5686035</ele>
        <time>2014-05-17T10:03:48Z</time>
      </trkpt>
      <trkpt lat="44.30944" lon="2.65448">
        <ele>630.762207</ele>
        <time>2014-05-17T10:03:54Z</time>
      </trkpt>
      <trkpt lat="44.30931" lon="2.65452">
        <ele>628.3588867</ele>
        <time>2014-05-17T10:03:58Z</time>
      </trkpt>
      <trkpt lat="44.30918" lon="2.65456">
        <ele>627.3977051</ele>
        <time>2014-05-17T10:04:02Z</time>
      </trkpt>
      <trkpt lat="44.30914" lon="2.65463">
        <ele>627.8781738</ele>
        <time>2014-05-17T10:04:05Z</time>
      </trkpt>
      <trkpt lat="44.30906" lon="2.65484">
        <ele>629.3200684</ele>
        <time>2014-05-17T10:04:11Z</time>
      </trkpt>
      <trkpt lat="44.30899" lon="2.65498">
        <ele>630.762207</ele>
        <time>2014-05-17T10:04:15Z</time>
      </trkpt>
      <trkpt lat="44.30887" lon="2.65508">
        <ele>630.2814941</ele>
        <time>2014-05-17T10:04:20Z</time>
      </trkpt>
      <trkpt lat="44.30881" lon="2.65514">
        <ele>629.8007813</ele>
        <time>2014-05-17T10:04:23Z</time>
      </trkpt>
      <trkpt lat="44.30871" lon="2.65526">
        <ele>631.7233887</ele>
        <time>2014-05-17T10:04:27Z</time>
      </trkpt>
      <trkpt lat="44.30875" lon="2.65536">
        <ele>630.762207</ele>
        <time>2014-05-17T10:04:32Z</time>
      </trkpt>
      <trkpt lat="44.30879" lon="2.65539">
        <ele>630.2814941</ele>
        <time>2014-05-17T10:04:34Z</time>
      </trkpt>
      <trkpt lat="44.30882" lon="2.65542">
        <ele>629.8007813</ele>
        <time>2014-05-17T10:04:36Z</time>
      </trkpt>
      <trkpt lat="44.30893" lon="2.65541">
        <ele>629.8007813</ele>
        <time>2014-05-17T10:04:41Z</time>
      </trkpt>
      <trkpt lat="44.30895" lon="2.65541">
        <ele>629.8007813</ele>
        <time>2014-05-17T10:04:42Z</time>
      </trkpt>
      <trkpt lat="44.30908" lon="2.6554">
        <ele>630.2814941</ele>
        <time>2014-05-17T10:04:48Z</time>
      </trkpt>
      <trkpt lat="44.30921" lon="2.65537">
        <ele>631.2429199</ele>
        <time>2014-05-17T10:04:54Z</time>
      </trkpt>
      <trkpt lat="44.3093" lon="2.65538">
        <ele>634.126709</ele>
        <time>2014-05-17T10:04:59Z</time>
      </trkpt>
      <trkpt lat="44.30939" lon="2.65539">
        <ele>637.0107422</ele>
        <time>2014-05-17T10:05:04Z</time>
      </trkpt>
      <trkpt lat="44.30948" lon="2.65541">
        <ele>637.972168</ele>
        <time>2014-05-17T10:05:09Z</time>
      </trkpt>
      <trkpt lat="44.3095" lon="2.65542">
        <ele>638.9335938</ele>
        <time>2014-05-17T10:05:10Z</time>
      </trkpt>
      <trkpt lat="44.30968" lon="2.65543">
        <ele>640.855957</ele>
        <time>2014-05-17T10:05:18Z</time>
      </trkpt>
      <trkpt lat="44.30981" lon="2.65544">
        <ele>641.8173828</ele>
        <time>2014-05-17T10:05:24Z</time>
      </trkpt>
      <trkpt lat="44.30993" lon="2.6555">
        <ele>642.2980957</ele>
        <time>2014-05-17T10:05:30Z</time>
      </trkpt>
      <trkpt lat="44.31007" lon="2.65557">
        <ele>644.2207031</ele>
        <time>2014-05-17T10:05:37Z</time>
      </trkpt>
      <trkpt lat="44.31017" lon="2.65561">
        <ele>646.1433105</ele>
        <time>2014-05-17T10:05:42Z</time>
      </trkpt>
      <trkpt lat="44.31032" lon="2.65567">
        <ele>647.1044922</ele>
        <time>2014-05-17T10:05:49Z</time>
      </trkpt>
      <trkpt lat="44.3104" lon="2.65577">
        <ele>648.065918</ele>
        <time>2014-05-17T10:05:54Z</time>
      </trkpt>
      <trkpt lat="44.31048" lon="2.65586">
        <ele>649.0270996</ele>
        <time>2014-05-17T10:05:59Z</time>
      </trkpt>
      <trkpt lat="44.31054" lon="2.65592">
        <ele>649.9885254</ele>
        <time>2014-05-17T10:06:03Z</time>
      </trkpt>
      <trkpt lat="44.31067" lon="2.65601">
        <ele>652.3918457</ele>
        <time>2014-05-17T10:06:09Z</time>
      </trkpt>
      <trkpt lat="44.31079" lon="2.6561">
        <ele>653.8339844</ele>
        <time>2014-05-17T10:06:15Z</time>
      </trkpt>
      <trkpt lat="44.31086" lon="2.65618">
        <ele>654.795166</ele>
        <time>2014-05-17T10:06:20Z</time>
      </trkpt>
      <trkpt lat="44.31095" lon="2.65629">
        <ele>653.8339844</ele>
        <time>2014-05-17T10:06:26Z</time>
      </trkpt>
      <trkpt lat="44.31105" lon="2.65639">
        <ele>655.2758789</ele>
        <time>2014-05-17T10:06:32Z</time>
      </trkpt>
      <trkpt lat="44.3112" lon="2.6565">
        <ele>658.1599121</ele>
        <time>2014-05-17T10:06:39Z</time>
      </trkpt>
      <trkpt lat="44.3113" lon="2.65659">
        <ele>660.0822754</ele>
        <time>2014-05-17T10:06:44Z</time>
      </trkpt>
      <trkpt lat="44.31138" lon="2.65666">
        <ele>661.5244141</ele>
        <time>2014-05-17T10:06:48Z</time>
      </trkpt>
      <trkpt lat="44.31147" lon="2.65677">
        <ele>663.9274902</ele>
        <time>2014-05-17T10:06:53Z</time>
      </trkpt>
      <trkpt lat="44.31151" lon="2.6569">
        <ele>664.888916</ele>
        <time>2014-05-17T10:06:58Z</time>
      </trkpt>
      <trkpt lat="44.31152" lon="2.65704">
        <ele>665.8503418</ele>
        <time>2014-05-17T10:07:03Z</time>
      </trkpt>
      <trkpt lat="44.31156" lon="2.65719">
        <ele>665.3696289</ele>
        <time>2014-05-17T10:07:08Z</time>
      </trkpt>
      <trkpt lat="44.31157" lon="2.65725">
        <ele>665.3696289</ele>
        <time>2014-05-17T10:07:10Z</time>
      </trkpt>
      <trkpt lat="44.31162" lon="2.65734">
        <ele>665.3696289</ele>
        <time>2014-05-17T10:07:14Z</time>
      </trkpt>
      <trkpt lat="44.31166" lon="2.65745">
        <ele>667.2922363</ele>
        <time>2014-05-17T10:07:18Z</time>
      </trkpt>
      <trkpt lat="44.31169" lon="2.65751">
        <ele>667.7727051</ele>
        <time>2014-05-17T10:07:20Z</time>
      </trkpt>
      <trkpt lat="44.31179" lon="2.65768">
        <ele>669.6958008</ele>
        <time>2014-05-17T10:07:27Z</time>
      </trkpt>
      <trkpt lat="44.31184" lon="2.65778">
        <ele>671.1376953</ele>
        <time>2014-05-17T10:07:31Z</time>
      </trkpt>
      <trkpt lat="44.31188" lon="2.65786">
        <ele>671.6181641</ele>
        <time>2014-05-17T10:07:34Z</time>
      </trkpt>
      <trkpt lat="44.31194" lon="2.65803">
        <ele>674.0214844</ele>
        <time>2014-05-17T10:07:40Z</time>
      </trkpt>
      <trkpt lat="44.31195" lon="2.65809">
        <ele>674.5021973</ele>
        <time>2014-05-17T10:07:42Z</time>
      </trkpt>
      <trkpt lat="44.31196" lon="2.65829">
        <ele>676.4248047</ele>
        <time>2014-05-17T10:07:49Z</time>
      </trkpt>
      <trkpt lat="44.31195" lon="2.65846">
        <ele>677.3862305</ele>
        <time>2014-05-17T10:07:54Z</time>
      </trkpt>
      <trkpt lat="44.31195" lon="2.6585">
        <ele>676.9055176</ele>
        <time>2014-05-17T10:07:55Z</time>
      </trkpt>
      <trkpt lat="44.31191" lon="2.65867">
        <ele>677.3862305</ele>
        <time>2014-05-17T10:08:00Z</time>
      </trkpt>
      <trkpt lat="44.31193" lon="2.65883">
        <ele>678.3474121</ele>
        <time>2014-05-17T10:08:05Z</time>
      </trkpt>
      <trkpt lat="44.3119" lon="2.65902">
        <ele>679.3085938</ele>
        <time>2014-05-17T10:08:11Z</time>
      </trkpt>
      <trkpt lat="44.31191" lon="2.65913">
        <ele>680.2700195</ele>
        <time>2014-05-17T10:08:15Z</time>
      </trkpt>
      <trkpt lat="44.31191" lon="2.65925">
        <ele>680.2700195</ele>
        <time>2014-05-17T10:08:19Z</time>
      </trkpt>
      <trkpt lat="44.31191" lon="2.65939">
        <ele>681.7119141</ele>
        <time>2014-05-17T10:08:24Z</time>
      </trkpt>
      <trkpt lat="44.31188" lon="2.65957">
        <ele>683.1538086</ele>
        <time>2014-05-17T10:08:29Z</time>
      </trkpt>
      <trkpt lat="44.31189" lon="2.65966">
        <ele>685.557373</ele>
        <time>2014-05-17T10:08:32Z</time>
      </trkpt>
      <trkpt lat="44.31193" lon="2.65976">
        <ele>686.5187988</ele>
        <time>2014-05-17T10:08:35Z</time>
      </trkpt>
      <trkpt lat="44.31194" lon="2.65978">
        <ele>686.5187988</ele>
        <time>2014-05-17T10:08:36Z</time>
      </trkpt>
      <trkpt lat="44.31203" lon="2.65993">
        <ele>686.5187988</ele>
        <time>2014-05-17T10:08:43Z</time>
      </trkpt>
      <trkpt lat="44.31214" lon="2.66008">
        <ele>687.4799805</ele>
        <time>2014-05-17T10:08:49Z</time>
      </trkpt>
      <trkpt lat="44.31224" lon="2.66021">
        <ele>687.9606934</ele>
        <time>2014-05-17T10:08:55Z</time>
      </trkpt>
      <trkpt lat="44.31235" lon="2.66031">
        <ele>689.8833008</ele>
        <time>2014-05-17T10:09:00Z</time>
      </trkpt>
      <trkpt lat="44.31244" lon="2.6604">
        <ele>690.8444824</ele>
        <time>2014-05-17T10:09:05Z</time>
      </trkpt>
      <trkpt lat="44.31255" lon="2.66048">
        <ele>692.767334</ele>
        <time>2014-05-17T10:09:10Z</time>
      </trkpt>
      <trkpt lat="44.31264" lon="2.66052">
        <ele>692.767334</ele>
        <time>2014-05-17T10:09:14Z</time>
      </trkpt>
      <trkpt lat="44.31275" lon="2.66053">
        <ele>694.6896973</ele>
        <time>2014-05-17T10:09:19Z</time>
      </trkpt>
      <trkpt lat="44.31289" lon="2.66062">
        <ele>697.0930176</ele>
        <time>2014-05-17T10:09:26Z</time>
      </trkpt>
      <trkpt lat="44.31292" lon="2.66071">
        <ele>697.5737305</ele>
        <time>2014-05-17T10:09:30Z</time>
      </trkpt>
      <trkpt lat="44.31299" lon="2.66083">
        <ele>697.0930176</ele>
        <time>2014-05-17T10:09:36Z</time>
      </trkpt>
      <trkpt lat="44.31301" lon="2.66086">
        <ele>697.0930176</ele>
        <time>2014-05-17T10:09:37Z</time>
      </trkpt>
      <trkpt lat="44.31305" lon="2.66093">
        <ele>697.5737305</ele>
        <time>2014-05-17T10:09:40Z</time>
      </trkpt>
      <trkpt lat="44.31308" lon="2.66109">
        <ele>698.0544434</ele>
        <time>2014-05-17T10:09:46Z</time>
      </trkpt>
      <trkpt lat="44.31313" lon="2.66125">
        <ele>699.4963379</ele>
        <time>2014-05-17T10:09:52Z</time>
      </trkpt>
      <trkpt lat="44.31313" lon="2.66129">
        <ele>699.9770508</ele>
        <time>2014-05-17T10:09:53Z</time>
      </trkpt>
      <trkpt lat="44.31314" lon="2.66139">
        <ele>701.4191895</ele>
        <time>2014-05-17T10:09:56Z</time>
      </trkpt>
      <trkpt lat="44.31319" lon="2.66155">
        <ele>705.7451172</ele>
        <time>2014-05-17T10:10:02Z</time>
      </trkpt>
      <trkpt lat="44.31324" lon="2.66169">
        <ele>706.7062988</ele>
        <time>2014-05-17T10:10:07Z</time>
      </trkpt>
      <trkpt lat="44.31326" lon="2.66181">
        <ele>708.6289063</ele>
        <time>2014-05-17T10:10:12Z</time>
      </trkpt>
      <trkpt lat="44.31327" lon="2.66184">
        <ele>708.6289063</ele>
        <time>2014-05-17T10:10:13Z</time>
      </trkpt>
      <trkpt lat="44.31329" lon="2.66201">
        <ele>709.1096191</ele>
        <time>2014-05-17T10:10:19Z</time>
      </trkpt>
      <trkpt lat="44.31334" lon="2.66216">
        <ele>709.1096191</ele>
        <time>2014-05-17T10:10:25Z</time>
      </trkpt>
      <trkpt lat="44.31338" lon="2.66222">
        <ele>708.6289063</ele>
        <time>2014-05-17T10:10:28Z</time>
      </trkpt>
      <trkpt lat="44.31346" lon="2.66234">
        <ele>708.1484375</ele>
        <time>2014-05-17T10:10:33Z</time>
      </trkpt>
      <trkpt lat="44.31355" lon="2.66247">
        <ele>711.5129395</ele>
        <time>2014-05-17T10:10:39Z</time>
      </trkpt>
      <trkpt lat="44.31362" lon="2.66257">
        <ele>714.3967285</ele>
        <time>2014-05-17T10:10:44Z</time>
      </trkpt>
      <trkpt lat="44.31373" lon="2.66269">
        <ele>716.800293</ele>
        <time>2014-05-17T10:10:50Z</time>
      </trkpt>
      <trkpt lat="44.31377" lon="2.66274">
        <ele>716.800293</ele>
        <time>2014-05-17T10:10:53Z</time>
      </trkpt>
      <trkpt lat="44.3138" lon="2.66284">
        <ele>717.2810059</ele>
        <time>2014-05-17T10:10:59Z</time>
      </trkpt>
      <trkpt lat="44.31381" lon="2.6629">
        <ele>717.2810059</ele>
        <time>2014-05-17T10:11:02Z</time>
      </trkpt>
      <trkpt lat="44.31381" lon="2.66293">
        <ele>717.7614746</ele>
        <time>2014-05-17T10:11:04Z</time>
      </trkpt>
      <trkpt lat="44.31382" lon="2.66302">
        <ele>719.6843262</ele>
        <time>2014-05-17T10:11:09Z</time>
      </trkpt>
      <trkpt lat="44.31381" lon="2.66306">
        <ele>720.1647949</ele>
        <time>2014-05-17T10:11:11Z</time>
      </trkpt>
      <trkpt lat="44.31381" lon="2.66318">
        <ele>719.2036133</ele>
        <time>2014-05-17T10:11:17Z</time>
      </trkpt>
      <trkpt lat="44.31385" lon="2.66328">
        <ele>721.1262207</ele>
        <time>2014-05-17T10:11:22Z</time>
      </trkpt>
      <trkpt lat="44.31387" lon="2.66332">
        <ele>721.6066895</ele>
        <time>2014-05-17T10:11:24Z</time>
      </trkpt>
      <trkpt lat="44.31389" lon="2.66335">
        <ele>722.0874023</ele>
        <time>2014-05-17T10:11:26Z</time>
      </trkpt>
      <trkpt lat="44.31392" lon="2.66344">
        <ele>724.4907227</ele>
        <time>2014-05-17T10:11:32Z</time>
      </trkpt>
      <trkpt lat="44.31397" lon="2.66351">
        <ele>726.894043</ele>
        <time>2014-05-17T10:11:38Z</time>
      </trkpt>
      <trkpt lat="44.31405" lon="2.66359">
        <ele>729.777832</ele>
        <time>2014-05-17T10:11:44Z</time>
      </trkpt>
      <trkpt lat="44.31408" lon="2.66361">
        <ele>729.777832</ele>
        <time>2014-05-17T10:11:46Z</time>
      </trkpt>
      <trkpt lat="44.31416" lon="2.66367">
        <ele>729.777832</ele>
        <time>2014-05-17T10:11:52Z</time>
      </trkpt>
      <trkpt lat="44.31427" lon="2.66372">
        <ele>731.7004395</ele>
        <time>2014-05-17T10:11:57Z</time>
      </trkpt>
      <trkpt lat="44.31437" lon="2.66373">
        <ele>732.6621094</ele>
        <time>2014-05-17T10:12:01Z</time>
      </trkpt>
      <trkpt lat="44.31449" lon="2.66372">
        <ele>733.623291</ele>
        <time>2014-05-17T10:12:06Z</time>
      </trkpt>
      <trkpt lat="44.31457" lon="2.66376">
        <ele>734.5847168</ele>
        <time>2014-05-17T10:12:11Z</time>
      </trkpt>
      <trkpt lat="44.31462" lon="2.66379">
        <ele>734.5847168</ele>
        <time>2014-05-17T10:12:14Z</time>
      </trkpt>
      <trkpt lat="44.31468" lon="2.66385">
        <ele>735.0654297</ele>
        <time>2014-05-17T10:12:21Z</time>
      </trkpt>
      <trkpt lat="44.31477" lon="2.66392">
        <ele>735.5458984</ele>
        <time>2014-05-17T10:12:27Z</time>
      </trkpt>
      <trkpt lat="44.3148" lon="2.66396">
        <ele>735.5458984</ele>
        <time>2014-05-17T10:12:30Z</time>
      </trkpt>
      <trkpt lat="44.31488" lon="2.66406">
        <ele>737.4685059</ele>
        <time>2014-05-17T10:12:36Z</time>
      </trkpt>
      <trkpt lat="44.31491" lon="2.66411">
        <ele>737.9492188</ele>
        <time>2014-05-17T10:12:39Z</time>
      </trkpt>
      <trkpt lat="44.31497" lon="2.66422">
        <ele>740.3525391</ele>
        <time>2014-05-17T10:12:45Z</time>
      </trkpt>
      <trkpt lat="44.3151" lon="2.66433">
        <ele>744.6782227</ele>
        <time>2014-05-17T10:12:51Z</time>
      </trkpt>
      <trkpt lat="44.31518" lon="2.6644">
        <ele>747.081543</ele>
        <time>2014-05-17T10:12:57Z</time>
      </trkpt>
      <trkpt lat="44.31527" lon="2.66447">
        <ele>749.0043945</ele>
        <time>2014-05-17T10:13:03Z</time>
      </trkpt>
      <trkpt lat="44.31528" lon="2.66448">
        <ele>749.4851074</ele>
        <time>2014-05-17T10:13:04Z</time>
      </trkpt>
      <trkpt lat="44.31533" lon="2.66455">
        <ele>749.9658203</ele>
        <time>2014-05-17T10:13:09Z</time>
      </trkpt>
      <trkpt lat="44.31535" lon="2.66462">
        <ele>750.4465332</ele>
        <time>2014-05-17T10:13:13Z</time>
      </trkpt>
      <trkpt lat="44.31533" lon="2.6647">
        <ele>751.4077148</ele>
        <time>2014-05-17T10:13:20Z</time>
      </trkpt>
      <trkpt lat="44.31533" lon="2.66474">
        <ele>751.8884277</ele>
        <time>2014-05-17T10:13:25Z</time>
      </trkpt>
      <trkpt lat="44.3153" lon="2.66485">
        <ele>752.3688965</ele>
        <time>2014-05-17T10:13:30Z</time>
      </trkpt>
      <trkpt lat="44.31523" lon="2.66501">
        <ele>754.7722168</ele>
        <time>2014-05-17T10:13:35Z</time>
      </trkpt>
      <trkpt lat="44.31512" lon="2.66514">
        <ele>756.2141113</ele>
        <time>2014-05-17T10:13:41Z</time>
      </trkpt>
      <trkpt lat="44.31497" lon="2.6652">
        <ele>756.6948242</ele>
        <time>2014-05-17T10:13:46Z</time>
      </trkpt>
      <trkpt lat="44.31484" lon="2.66523">
        <ele>757.1755371</ele>
        <time>2014-05-17T10:13:51Z</time>
      </trkpt>
      <trkpt lat="44.3147" lon="2.66532">
        <ele>757.1755371</ele>
        <time>2014-05-17T10:13:57Z</time>
      </trkpt>
      <trkpt lat="44.31462" lon="2.66543">
        <ele>757.65625</ele>
        <time>2014-05-17T10:14:01Z</time>
      </trkpt>
      <trkpt lat="44.31458" lon="2.66567">
        <ele>759.0981445</ele>
        <time>2014-05-17T10:14:08Z</time>
      </trkpt>
      <trkpt lat="44.31461" lon="2.66584">
        <ele>760.0593262</ele>
        <time>2014-05-17T10:14:13Z</time>
      </trkpt>
      <trkpt lat="44.31467" lon="2.66596">
        <ele>760.0593262</ele>
        <time>2014-05-17T10:14:17Z</time>
      </trkpt>
      <trkpt lat="44.31474" lon="2.66606">
        <ele>760.0593262</ele>
        <time>2014-05-17T10:14:21Z</time>
      </trkpt>
      <trkpt lat="44.31484" lon="2.66616">
        <ele>759.5788574</ele>
        <time>2014-05-17T10:14:26Z</time>
      </trkpt>
      <trkpt lat="44.31497" lon="2.66625">
        <ele>759.0981445</ele>
        <time>2014-05-17T10:14:32Z</time>
      </trkpt>
      <trkpt lat="44.3151" lon="2.66634">
        <ele>759.5788574</ele>
        <time>2014-05-17T10:14:38Z</time>
      </trkpt>
      <trkpt lat="44.31525" lon="2.66644">
        <ele>760.0593262</ele>
        <time>2014-05-17T10:14:45Z</time>
      </trkpt>
      <trkpt lat="44.31538" lon="2.66652">
        <ele>760.0593262</ele>
        <time>2014-05-17T10:14:50Z</time>
      </trkpt>
      <trkpt lat="44.31549" lon="2.66661">
        <ele>760.5400391</ele>
        <time>2014-05-17T10:14:55Z</time>
      </trkpt>
      <trkpt lat="44.31562" lon="2.66671">
        <ele>761.020752</ele>
        <time>2014-05-17T10:15:01Z</time>
      </trkpt>
      <trkpt lat="44.31576" lon="2.66686">
        <ele>761.5014648</ele>
        <time>2014-05-17T10:15:08Z</time>
      </trkpt>
      <trkpt lat="44.31588" lon="2.66701">
        <ele>761.9821777</ele>
        <time>2014-05-17T10:15:14Z</time>
      </trkpt>
      <trkpt lat="44.31597" lon="2.66716">
        <ele>761.9821777</ele>
        <time>2014-05-17T10:15:19Z</time>
      </trkpt>
      <trkpt lat="44.31606" lon="2.66729">
        <ele>761.9821777</ele>
        <time>2014-05-17T10:15:24Z</time>
      </trkpt>
      <trkpt lat="44.31618" lon="2.66747">
        <ele>763.4240723</ele>
        <time>2014-05-17T10:15:31Z</time>
      </trkpt>
      <trkpt lat="44.31629" lon="2.6676">
        <ele>763.4240723</ele>
        <time>2014-05-17T10:15:36Z</time>
      </trkpt>
      <trkpt lat="44.31634" lon="2.6677">
        <ele>763.904541</ele>
        <time>2014-05-17T10:15:40Z</time>
      </trkpt>
      <trkpt lat="44.3164" lon="2.66783">
        <ele>763.4240723</ele>
        <time>2014-05-17T10:15:45Z</time>
      </trkpt>
      <trkpt lat="44.31646" lon="2.66794">
        <ele>763.4240723</ele>
        <time>2014-05-17T10:15:49Z</time>
      </trkpt>
      <trkpt lat="44.31649" lon="2.66803">
        <ele>762.9433594</ele>
        <time>2014-05-17T10:15:52Z</time>
      </trkpt>
      <trkpt lat="44.31653" lon="2.6682">
        <ele>764.385498</ele>
        <time>2014-05-17T10:15:57Z</time>
      </trkpt>
      <trkpt lat="44.31648" lon="2.66843">
        <ele>765.8276367</ele>
        <time>2014-05-17T10:16:03Z</time>
      </trkpt>
      <trkpt lat="44.31644" lon="2.66864">
        <ele>766.7888184</ele>
        <time>2014-05-17T10:16:08Z</time>
      </trkpt>
      <trkpt lat="44.31645" lon="2.66884">
        <ele>768.2307129</ele>
        <time>2014-05-17T10:16:13Z</time>
      </trkpt>
      <trkpt lat="44.31648" lon="2.66891">
        <ele>768.2307129</ele>
        <time>2014-05-17T10:16:15Z</time>
      </trkpt>
      <trkpt lat="44.31654" lon="2.66908">
        <ele>768.2307129</ele>
        <time>2014-05-17T10:16:20Z</time>
      </trkpt>
      <trkpt lat="44.31667" lon="2.66924">
        <ele>768.2307129</ele>
        <time>2014-05-17T10:16:26Z</time>
      </trkpt>
      <trkpt lat="44.31677" lon="2.66936">
        <ele>768.2307129</ele>
        <time>2014-05-17T10:16:31Z</time>
      </trkpt>
      <trkpt lat="44.31679" lon="2.66939">
        <ele>768.7114258</ele>
        <time>2014-05-17T10:16:35Z</time>
      </trkpt>
      <trkpt lat="44.3168" lon="2.66941">
        <ele>770.6340332</ele>
        <time>2014-05-17T10:16:42Z</time>
      </trkpt>
      <trkpt lat="44.31686" lon="2.6696">
        <ele>771.1147461</ele>
        <time>2014-05-17T10:16:48Z</time>
      </trkpt>
      <trkpt lat="44.31687" lon="2.66978">
        <ele>771.5952148</ele>
        <time>2014-05-17T10:16:53Z</time>
      </trkpt>
      <trkpt lat="44.31683" lon="2.66999">
        <ele>772.5566406</ele>
        <time>2014-05-17T10:16:59Z</time>
      </trkpt>
      <trkpt lat="44.31678" lon="2.67015">
        <ele>773.0373535</ele>
        <time>2014-05-17T10:17:04Z</time>
      </trkpt>
      <trkpt lat="44.31668" lon="2.67034">
        <ele>774.479248</ele>
        <time>2014-05-17T10:17:10Z</time>
      </trkpt>
      <trkpt lat="44.31658" lon="2.6705">
        <ele>774.9599609</ele>
        <time>2014-05-17T10:17:16Z</time>
      </trkpt>
      <trkpt lat="44.31648" lon="2.67063">
        <ele>774.9599609</ele>
        <time>2014-05-17T10:17:21Z</time>
      </trkpt>
      <trkpt lat="44.3164" lon="2.67072">
        <ele>773.9985352</ele>
        <time>2014-05-17T10:17:25Z</time>
      </trkpt>
      <trkpt lat="44.31628" lon="2.67081">
        <ele>772.5566406</ele>
        <time>2014-05-17T10:17:30Z</time>
      </trkpt>
      <trkpt lat="44.31619" lon="2.67086">
        <ele>770.6340332</ele>
        <time>2014-05-17T10:17:34Z</time>
      </trkpt>
      <trkpt lat="44.31604" lon="2.67094">
        <ele>770.1533203</ele>
        <time>2014-05-17T10:17:40Z</time>
      </trkpt>
      <trkpt lat="44.31589" lon="2.67097">
        <ele>768.7114258</ele>
        <time>2014-05-17T10:17:46Z</time>
      </trkpt>
      <trkpt lat="44.31579" lon="2.67099">
        <ele>769.1921387</ele>
        <time>2014-05-17T10:17:50Z</time>
      </trkpt>
      <trkpt lat="44.31562" lon="2.67101">
        <ele>769.6728516</ele>
        <time>2014-05-17T10:17:56Z</time>
      </trkpt>
      <trkpt lat="44.31549" lon="2.67105">
        <ele>772.0759277</ele>
        <time>2014-05-17T10:18:01Z</time>
      </trkpt>
      <trkpt lat="44.31532" lon="2.67111">
        <ele>772.0759277</ele>
        <time>2014-05-17T10:18:07Z</time>
      </trkpt>
      <trkpt lat="44.31517" lon="2.67116">
        <ele>772.0759277</ele>
        <time>2014-05-17T10:18:13Z</time>
      </trkpt>
      <trkpt lat="44.31502" lon="2.67123">
        <ele>772.5566406</ele>
        <time>2014-05-17T10:18:19Z</time>
      </trkpt>
      <trkpt lat="44.31487" lon="2.67133">
        <ele>772.0759277</ele>
        <time>2014-05-17T10:18:25Z</time>
      </trkpt>
      <trkpt lat="44.31476" lon="2.67146">
        <ele>773.0373535</ele>
        <time>2014-05-17T10:18:30Z</time>
      </trkpt>
      <trkpt lat="44.3147" lon="2.67155">
        <ele>773.9985352</ele>
        <time>2014-05-17T10:18:33Z</time>
      </trkpt>
      <trkpt lat="44.31458" lon="2.67184">
        <ele>777.3632813</ele>
        <time>2014-05-17T10:18:41Z</time>
      </trkpt>
      <trkpt lat="44.31454" lon="2.67208">
        <ele>779.2856445</ele>
        <time>2014-05-17T10:18:47Z</time>
      </trkpt>
      <trkpt lat="44.31453" lon="2.67216">
        <ele>779.7663574</ele>
        <time>2014-05-17T10:18:49Z</time>
      </trkpt>
      <trkpt lat="44.31454" lon="2.67231">
        <ele>781.2087402</ele>
        <time>2014-05-17T10:18:53Z</time>
      </trkpt>
      <trkpt lat="44.31456" lon="2.67253">
        <ele>782.1699219</ele>
        <time>2014-05-17T10:18:59Z</time>
      </trkpt>
      <trkpt lat="44.31459" lon="2.67269">
        <ele>783.6118164</ele>
        <time>2014-05-17T10:19:03Z</time>
      </trkpt>
      <trkpt lat="44.3146" lon="2.67273">
        <ele>783.6118164</ele>
        <time>2014-05-17T10:19:04Z</time>
      </trkpt>
      <trkpt lat="44.31466" lon="2.67293">
        <ele>784.5732422</ele>
        <time>2014-05-17T10:19:09Z</time>
      </trkpt>
      <trkpt lat="44.31472" lon="2.67309">
        <ele>785.5344238</ele>
        <time>2014-05-17T10:19:14Z</time>
      </trkpt>
      <trkpt lat="44.3148" lon="2.67322">
        <ele>785.5344238</ele>
        <time>2014-05-17T10:19:19Z</time>
      </trkpt>
      <trkpt lat="44.31489" lon="2.67334">
        <ele>785.5344238</ele>
        <time>2014-05-17T10:19:24Z</time>
      </trkpt>
      <trkpt lat="44.31498" lon="2.67342">
        <ele>785.0539551</ele>
        <time>2014-05-17T10:19:29Z</time>
      </trkpt>
      <trkpt lat="44.31508" lon="2.67351">
        <ele>785.0539551</ele>
        <time>2014-05-17T10:19:34Z</time>
      </trkpt>
      <trkpt lat="44.3152" lon="2.6735">
        <ele>785.5344238</ele>
        <time>2014-05-17T10:19:39Z</time>
      </trkpt>
      <trkpt lat="44.31523" lon="2.6735">
        <ele>785.5344238</ele>
        <time>2014-05-17T10:19:40Z</time>
      </trkpt>
      <trkpt lat="44.31534" lon="2.67362">
        <ele>786.0151367</ele>
        <time>2014-05-17T10:19:46Z</time>
      </trkpt>
      <trkpt lat="44.31536" lon="2.67364">
        <ele>785.5344238</ele>
        <time>2014-05-17T10:19:47Z</time>
      </trkpt>
      <trkpt lat="44.31545" lon="2.67369">
        <ele>786.0151367</ele>
        <time>2014-05-17T10:19:51Z</time>
      </trkpt>
      <trkpt lat="44.31561" lon="2.67383">
        <ele>786.9763184</ele>
        <time>2014-05-17T10:19:59Z</time>
      </trkpt>
      <trkpt lat="44.31573" lon="2.6739">
        <ele>787.4570313</ele>
        <time>2014-05-17T10:20:03Z</time>
      </trkpt>
      <trkpt lat="44.31585" lon="2.67403">
        <ele>788.418457</ele>
        <time>2014-05-17T10:20:09Z</time>
      </trkpt>
      <trkpt lat="44.31598" lon="2.67413">
        <ele>787.9377441</ele>
        <time>2014-05-17T10:20:15Z</time>
      </trkpt>
      <trkpt lat="44.31611" lon="2.67419">
        <ele>788.418457</ele>
        <time>2014-05-17T10:20:20Z</time>
      </trkpt>
      <trkpt lat="44.31624" lon="2.6742">
        <ele>788.418457</ele>
        <time>2014-05-17T10:20:25Z</time>
      </trkpt>
      <trkpt lat="44.31639" lon="2.67418">
        <ele>788.8991699</ele>
        <time>2014-05-17T10:20:31Z</time>
      </trkpt>
      <trkpt lat="44.31655" lon="2.67416">
        <ele>789.3796387</ele>
        <time>2014-05-17T10:20:37Z</time>
      </trkpt>
      <trkpt lat="44.3167" lon="2.67414">
        <ele>790.8215332</ele>
        <time>2014-05-17T10:20:43Z</time>
      </trkpt>
      <trkpt lat="44.31681" lon="2.67414">
        <ele>791.782959</ele>
        <time>2014-05-17T10:20:47Z</time>
      </trkpt>
      <trkpt lat="44.31693" lon="2.67411">
        <ele>792.2636719</ele>
        <time>2014-05-17T10:20:52Z</time>
      </trkpt>
      <trkpt lat="44.31703" lon="2.67407">
        <ele>793.2248535</ele>
        <time>2014-05-17T10:20:57Z</time>
      </trkpt>
      <trkpt lat="44.31716" lon="2.67402">
        <ele>795.1474609</ele>
        <time>2014-05-17T10:21:03Z</time>
      </trkpt>
      <trkpt lat="44.31728" lon="2.67406">
        <ele>796.1091309</ele>
        <time>2014-05-17T10:21:09Z</time>
      </trkpt>
      <trkpt lat="44.31737" lon="2.67413">
        <ele>795.6281738</ele>
        <time>2014-05-17T10:21:14Z</time>
      </trkpt>
      <trkpt lat="44.31748" lon="2.67423">
        <ele>795.1474609</ele>
        <time>2014-05-17T10:21:20Z</time>
      </trkpt>
      <trkpt lat="44.31758" lon="2.67427">
        <ele>796.5898438</ele>
        <time>2014-05-17T10:21:24Z</time>
      </trkpt>
      <trkpt lat="44.31771" lon="2.6743">
        <ele>798.9929199</ele>
        <time>2014-05-17T10:21:30Z</time>
      </trkpt>
      <trkpt lat="44.31781" lon="2.6743">
        <ele>800.9155273</ele>
        <time>2014-05-17T10:21:34Z</time>
      </trkpt>
      <trkpt lat="44.31787" lon="2.67431">
        <ele>801.3962402</ele>
        <time>2014-05-17T10:21:36Z</time>
      </trkpt>
      <trkpt lat="44.31793" lon="2.67416">
        <ele>801.8769531</ele>
        <time>2014-05-17T10:21:41Z</time>
      </trkpt>
      <trkpt lat="44.31795" lon="2.67414">
        <ele>801.8769531</ele>
        <time>2014-05-17T10:21:44Z</time>
      </trkpt>
      <trkpt lat="44.31792" lon="2.67425">
        <ele>802.8381348</ele>
        <time>2014-05-17T10:21:49Z</time>
      </trkpt>
      <trkpt lat="44.31797" lon="2.67429">
        <ele>803.3188477</ele>
        <time>2014-05-17T10:21:52Z</time>
      </trkpt>
      <trkpt lat="44.31804" lon="2.67427">
        <ele>804.2802734</ele>
        <time>2014-05-17T10:21:54Z</time>
      </trkpt>
      <trkpt lat="44.31821" lon="2.67422">
        <ele>805.2414551</ele>
        <time>2014-05-17T10:22:00Z</time>
      </trkpt>
      <trkpt lat="44.31838" lon="2.67416">
        <ele>806.6833496</ele>
        <time>2014-05-17T10:22:07Z</time>
      </trkpt>
      <trkpt lat="44.31848" lon="2.67406">
        <ele>806.6833496</ele>
        <time>2014-05-17T10:22:12Z</time>
      </trkpt>
      <trkpt lat="44.3186" lon="2.67393">
        <ele>804.7607422</ele>
        <time>2014-05-17T10:22:18Z</time>
      </trkpt>
      <trkpt lat="44.31876" lon="2.67388">
        <ele>803.3188477</ele>
        <time>2014-05-17T10:22:23Z</time>
      </trkpt>
      <trkpt lat="44.31894" lon="2.67386">
        <ele>803.7995605</ele>
        <time>2014-05-17T10:22:29Z</time>
      </trkpt>
      <trkpt lat="44.31909" lon="2.67385">
        <ele>803.7995605</ele>
        <time>2014-05-17T10:22:34Z</time>
      </trkpt>
      <trkpt lat="44.31926" lon="2.6739">
        <ele>803.7995605</ele>
        <time>2014-05-17T10:22:40Z</time>
      </trkpt>
      <trkpt lat="44.31943" lon="2.67396">
        <ele>804.2802734</ele>
        <time>2014-05-17T10:22:46Z</time>
      </trkpt>
      <trkpt lat="44.3196" lon="2.67403">
        <ele>804.2802734</ele>
        <time>2014-05-17T10:22:52Z</time>
      </trkpt>
      <trkpt lat="44.31974" lon="2.67408">
        <ele>803.7995605</ele>
        <time>2014-05-17T10:22:57Z</time>
      </trkpt>
      <trkpt lat="44.31988" lon="2.6741">
        <ele>803.7995605</ele>
        <time>2014-05-17T10:23:02Z</time>
      </trkpt>
      <trkpt lat="44.32005" lon="2.67406">
        <ele>803.7995605</ele>
        <time>2014-05-17T10:23:08Z</time>
      </trkpt>
      <trkpt lat="44.32018" lon="2.67397">
        <ele>803.3188477</ele>
        <time>2014-05-17T10:23:13Z</time>
      </trkpt>
      <trkpt lat="44.32033" lon="2.67389">
        <ele>803.7995605</ele>
        <time>2014-05-17T10:23:19Z</time>
      </trkpt>
      <trkpt lat="44.32044" lon="2.67381">
        <ele>805.722168</ele>
        <time>2014-05-17T10:23:24Z</time>
      </trkpt>
      <trkpt lat="44.32057" lon="2.67372">
        <ele>807.1640625</ele>
        <time>2014-05-17T10:23:30Z</time>
      </trkpt>
      <trkpt lat="44.32069" lon="2.67367">
        <ele>807.6447754</ele>
        <time>2014-05-17T10:23:35Z</time>
      </trkpt>
      <trkpt lat="44.32081" lon="2.67362">
        <ele>808.1254883</ele>
        <time>2014-05-17T10:23:40Z</time>
      </trkpt>
      <trkpt lat="44.32097" lon="2.67355">
        <ele>806.6833496</ele>
        <time>2014-05-17T10:23:46Z</time>
      </trkpt>
      <trkpt lat="44.3211" lon="2.67349">
        <ele>806.2026367</ele>
        <time>2014-05-17T10:23:51Z</time>
      </trkpt>
      <trkpt lat="44.3212" lon="2.67345">
        <ele>805.722168</ele>
        <time>2014-05-17T10:23:55Z</time>
      </trkpt>
      <trkpt lat="44.32134" lon="2.67339">
        <ele>804.7607422</ele>
        <time>2014-05-17T10:24:00Z</time>
      </trkpt>
      <trkpt lat="44.3215" lon="2.67334">
        <ele>804.2802734</ele>
        <time>2014-05-17T10:24:06Z</time>
      </trkpt>
      <trkpt lat="44.32166" lon="2.6733">
        <ele>804.7607422</ele>
        <time>2014-05-17T10:24:12Z</time>
      </trkpt>
      <trkpt lat="44.32181" lon="2.67331">
        <ele>805.722168</ele>
        <time>2014-05-17T10:24:17Z</time>
      </trkpt>
      <trkpt lat="44.32187" lon="2.67333">
        <ele>805.722168</ele>
        <time>2014-05-17T10:24:19Z</time>
      </trkpt>
      <trkpt lat="44.32199" lon="2.6735">
        <ele>805.722168</ele>
        <time>2014-05-17T10:24:25Z</time>
      </trkpt>
      <trkpt lat="44.32204" lon="2.67358">
        <ele>805.722168</ele>
        <time>2014-05-17T10:24:28Z</time>
      </trkpt>
      <trkpt lat="44.32208" lon="2.67352">
        <ele>806.2026367</ele>
        <time>2014-05-17T10:24:32Z</time>
      </trkpt>
      <trkpt lat="44.32209" lon="2.67331">
        <ele>805.2414551</ele>
        <time>2014-05-17T10:24:37Z</time>
      </trkpt>
      <trkpt lat="44.32213" lon="2.67314">
        <ele>803.3188477</ele>
        <time>2014-05-17T10:24:42Z</time>
      </trkpt>
      <trkpt lat="44.32218" lon="2.67296">
        <ele>801.8769531</ele>
        <time>2014-05-17T10:24:47Z</time>
      </trkpt>
      <trkpt lat="44.32219" lon="2.67293">
        <ele>801.8769531</ele>
        <time>2014-05-17T10:24:48Z</time>
      </trkpt>
      <trkpt lat="44.32229" lon="2.67271">
        <ele>801.3962402</ele>
        <time>2014-05-17T10:24:54Z</time>
      </trkpt>
      <trkpt lat="44.3224" lon="2.67253">
        <ele>800.4350586</ele>
        <time>2014-05-17T10:25:00Z</time>
      </trkpt>
      <trkpt lat="44.32254" lon="2.67232">
        <ele>798.512207</ele>
        <time>2014-05-17T10:25:07Z</time>
      </trkpt>
      <trkpt lat="44.32265" lon="2.67218">
        <ele>798.512207</ele>
        <time>2014-05-17T10:25:12Z</time>
      </trkpt>
      <trkpt lat="44.32275" lon="2.67204">
        <ele>798.9929199</ele>
        <time>2014-05-17T10:25:17Z</time>
      </trkpt>
      <trkpt lat="44.32284" lon="2.67191">
        <ele>798.9929199</ele>
        <time>2014-05-17T10:25:22Z</time>
      </trkpt>
      <trkpt lat="44.32295" lon="2.6718">
        <ele>798.0317383</ele>
        <time>2014-05-17T10:25:27Z</time>
      </trkpt>
      <trkpt lat="44.32306" lon="2.67169">
        <ele>797.5510254</ele>
        <time>2014-05-17T10:25:32Z</time>
      </trkpt>
      <trkpt lat="44.3232" lon="2.67157">
        <ele>794.666748</ele>
        <time>2014-05-17T10:25:38Z</time>
      </trkpt>
      <trkpt lat="44.32335" lon="2.67143">
        <ele>792.7443848</ele>
        <time>2014-05-17T10:25:44Z</time>
      </trkpt>
      <trkpt lat="44.32348" lon="2.67129">
        <ele>791.782959</ele>
        <time>2014-05-17T10:25:50Z</time>
      </trkpt>
      <trkpt lat="44.32364" lon="2.67115">
        <ele>792.2636719</ele>
        <time>2014-05-17T10:25:57Z</time>
      </trkpt>
      <trkpt lat="44.32378" lon="2.67102">
        <ele>793.2248535</ele>
        <time>2014-05-17T10:26:03Z</time>
      </trkpt>
      <trkpt lat="44.32394" lon="2.67086">
        <ele>793.7055664</ele>
        <time>2014-05-17T10:26:10Z</time>
      </trkpt>
      <trkpt lat="44.32407" lon="2.67074">
        <ele>793.7055664</ele>
        <time>2014-05-17T10:26:15Z</time>
      </trkpt>
      <trkpt lat="44.32417" lon="2.67066">
        <ele>793.7055664</ele>
        <time>2014-05-17T10:26:19Z</time>
      </trkpt>
      <trkpt lat="44.32428" lon="2.67054">
        <ele>791.782959</ele>
        <time>2014-05-17T10:26:24Z</time>
      </trkpt>
      <trkpt lat="44.32439" lon="2.67042">
        <ele>791.782959</ele>
        <time>2014-05-17T10:26:29Z</time>
      </trkpt>
      <trkpt lat="44.32451" lon="2.67032">
        <ele>791.3022461</ele>
        <time>2014-05-17T10:26:34Z</time>
      </trkpt>
      <trkpt lat="44.32467" lon="2.67016">
        <ele>790.8215332</ele>
        <time>2014-05-17T10:26:41Z</time>
      </trkpt>
      <trkpt lat="44.32482" lon="2.67002">
        <ele>790.3410645</ele>
        <time>2014-05-17T10:26:47Z</time>
      </trkpt>
      <trkpt lat="44.32493" lon="2.6699">
        <ele>789.3796387</ele>
        <time>2014-05-17T10:26:52Z</time>
      </trkpt>
      <trkpt lat="44.32507" lon="2.66979">
        <ele>787.9377441</ele>
        <time>2014-05-17T10:26:57Z</time>
      </trkpt>
      <trkpt lat="44.3252" lon="2.6697">
        <ele>786.9763184</ele>
        <time>2014-05-17T10:27:02Z</time>
      </trkpt>
      <trkpt lat="44.32539" lon="2.66957">
        <ele>785.5344238</ele>
        <time>2014-05-17T10:27:09Z</time>
      </trkpt>
      <trkpt lat="44.32557" lon="2.66946">
        <ele>783.1311035</ele>
        <time>2014-05-17T10:27:15Z</time>
      </trkpt>
      <trkpt lat="44.3257" lon="2.66937">
        <ele>782.1699219</ele>
        <time>2014-05-17T10:27:20Z</time>
      </trkpt>
      <trkpt lat="44.32586" lon="2.66926">
        <ele>783.1311035</ele>
        <time>2014-05-17T10:27:26Z</time>
      </trkpt>
      <trkpt lat="44.32595" lon="2.66915">
        <ele>783.6118164</ele>
        <time>2014-05-17T10:27:30Z</time>
      </trkpt>
      <trkpt lat="44.32606" lon="2.66903">
        <ele>783.1311035</ele>
        <time>2014-05-17T10:27:35Z</time>
      </trkpt>
      <trkpt lat="44.32613" lon="2.66891">
        <ele>782.1699219</ele>
        <time>2014-05-17T10:27:39Z</time>
      </trkpt>
      <trkpt lat="44.3262" lon="2.66873">
        <ele>781.2087402</ele>
        <time>2014-05-17T10:27:44Z</time>
      </trkpt>
      <trkpt lat="44.32625" lon="2.66855">
        <ele>778.3244629</ele>
        <time>2014-05-17T10:27:49Z</time>
      </trkpt>
      <trkpt lat="44.32628" lon="2.66838">
        <ele>775.9211426</ele>
        <time>2014-05-17T10:27:53Z</time>
      </trkpt>
      <trkpt lat="44.3263" lon="2.66815">
        <ele>773.5180664</ele>
        <time>2014-05-17T10:27:58Z</time>
      </trkpt>
      <trkpt lat="44.32624" lon="2.66792">
        <ele>773.5180664</ele>
        <time>2014-05-17T10:28:03Z</time>
      </trkpt>
      <trkpt lat="44.32623" lon="2.66774">
        <ele>773.0373535</ele>
        <time>2014-05-17T10:28:07Z</time>
      </trkpt>
      <trkpt lat="44.32626" lon="2.66751">
        <ele>771.5952148</ele>
        <time>2014-05-17T10:28:12Z</time>
      </trkpt>
      <trkpt lat="44.32628" lon="2.66732">
        <ele>770.6340332</ele>
        <time>2014-05-17T10:28:17Z</time>
      </trkpt>
      <trkpt lat="44.32633" lon="2.66714">
        <ele>769.6728516</ele>
        <time>2014-05-17T10:28:22Z</time>
      </trkpt>
      <trkpt lat="44.32639" lon="2.66695">
        <ele>767.75</ele>
        <time>2014-05-17T10:28:27Z</time>
      </trkpt>
      <trkpt lat="44.3264" lon="2.66676">
        <ele>767.75</ele>
        <time>2014-05-17T10:28:32Z</time>
      </trkpt>
      <trkpt lat="44.3264" lon="2.6666">
        <ele>766.7888184</ele>
        <time>2014-05-17T10:28:36Z</time>
      </trkpt>
      <trkpt lat="44.32644" lon="2.66639">
        <ele>767.2695313</ele>
        <time>2014-05-17T10:28:41Z</time>
      </trkpt>
      <trkpt lat="44.32652" lon="2.66616">
        <ele>768.2307129</ele>
        <time>2014-05-17T10:28:47Z</time>
      </trkpt>
      <trkpt lat="44.32657" lon="2.66599">
        <ele>769.6728516</ele>
        <time>2014-05-17T10:28:52Z</time>
      </trkpt>
      <trkpt lat="44.32663" lon="2.66581">
        <ele>770.1533203</ele>
        <time>2014-05-17T10:28:56Z</time>
      </trkpt>
      <trkpt lat="44.32673" lon="2.66567">
        <ele>768.7114258</ele>
        <time>2014-05-17T10:29:00Z</time>
      </trkpt>
      <trkpt lat="44.3269" lon="2.66553">
        <ele>765.8276367</ele>
        <time>2014-05-17T10:29:06Z</time>
      </trkpt>
      <trkpt lat="44.32709" lon="2.66542">
        <ele>761.5014648</ele>
        <time>2014-05-17T10:29:12Z</time>
      </trkpt>
      <trkpt lat="44.32726" lon="2.66532">
        <ele>758.1369629</ele>
        <time>2014-05-17T10:29:18Z</time>
      </trkpt>
      <trkpt lat="44.32743" lon="2.66522">
        <ele>755.2529297</ele>
        <time>2014-05-17T10:29:24Z</time>
      </trkpt>
      <trkpt lat="44.32754" lon="2.66514">
        <ele>754.291748</ele>
        <time>2014-05-17T10:29:28Z</time>
      </trkpt>
      <trkpt lat="44.32768" lon="2.66506">
        <ele>753.3303223</ele>
        <time>2014-05-17T10:29:33Z</time>
      </trkpt>
      <trkpt lat="44.32784" lon="2.66497">
        <ele>753.3303223</ele>
        <time>2014-05-17T10:29:39Z</time>
      </trkpt>
      <trkpt lat="44.32804" lon="2.66485">
        <ele>753.3303223</ele>
        <time>2014-05-17T10:29:46Z</time>
      </trkpt>
      <trkpt lat="44.32819" lon="2.66475">
        <ele>750.927002</ele>
        <time>2014-05-17T10:29:52Z</time>
      </trkpt>
      <trkpt lat="44.32837" lon="2.66466">
        <ele>750.4465332</ele>
        <time>2014-05-17T10:29:58Z</time>
      </trkpt>
      <trkpt lat="44.32854" lon="2.66456">
        <ele>748.0432129</ele>
        <time>2014-05-17T10:30:04Z</time>
      </trkpt>
      <trkpt lat="44.32865" lon="2.66452">
        <ele>748.0432129</ele>
        <time>2014-05-17T10:30:08Z</time>
      </trkpt>
      <trkpt lat="44.32879" lon="2.6645">
        <ele>748.0432129</ele>
        <time>2014-05-17T10:30:12Z</time>
      </trkpt>
      <trkpt lat="44.3289" lon="2.66446">
        <ele>747.5622559</ele>
        <time>2014-05-17T10:30:16Z</time>
      </trkpt>
      <trkpt lat="44.32902" lon="2.66438">
        <ele>747.081543</ele>
        <time>2014-05-17T10:30:20Z</time>
      </trkpt>
      <trkpt lat="44.32915" lon="2.66418">
        <ele>746.6010742</ele>
        <time>2014-05-17T10:30:26Z</time>
      </trkpt>
      <trkpt lat="44.32917" lon="2.66415">
        <ele>746.1203613</ele>
        <time>2014-05-17T10:30:27Z</time>
      </trkpt>
      <trkpt lat="44.32924" lon="2.66397">
        <ele>745.1589355</ele>
        <time>2014-05-17T10:30:32Z</time>
      </trkpt>
      <trkpt lat="44.32932" lon="2.6638">
        <ele>741.7944336</ele>
        <time>2014-05-17T10:30:37Z</time>
      </trkpt>
      <trkpt lat="44.32929" lon="2.66363">
        <ele>741.3137207</ele>
        <time>2014-05-17T10:30:41Z</time>
      </trkpt>
      <trkpt lat="44.32917" lon="2.6635">
        <ele>742.7558594</ele>
        <time>2014-05-17T10:30:45Z</time>
      </trkpt>
      <trkpt lat="44.329" lon="2.6634">
        <ele>743.2363281</ele>
        <time>2014-05-17T10:30:51Z</time>
      </trkpt>
      <trkpt lat="44.32885" lon="2.66329">
        <ele>742.7558594</ele>
        <time>2014-05-17T10:30:56Z</time>
      </trkpt>
      <trkpt lat="44.32872" lon="2.66315">
        <ele>742.7558594</ele>
        <time>2014-05-17T10:31:01Z</time>
      </trkpt>
      <trkpt lat="44.32857" lon="2.66298">
        <ele>743.2363281</ele>
        <time>2014-05-17T10:31:07Z</time>
      </trkpt>
      <trkpt lat="44.32842" lon="2.6629">
        <ele>743.2363281</ele>
        <time>2014-05-17T10:31:12Z</time>
      </trkpt>
      <trkpt lat="44.32826" lon="2.66294">
        <ele>741.7944336</ele>
        <time>2014-05-17T10:31:17Z</time>
      </trkpt>
      <trkpt lat="44.32816" lon="2.66302">
        <ele>739.8718262</ele>
        <time>2014-05-17T10:31:20Z</time>
      </trkpt>
      <trkpt lat="44.32803" lon="2.66302">
        <ele>737.4685059</ele>
        <time>2014-05-17T10:31:24Z</time>
      </trkpt>
      <trkpt lat="44.32793" lon="2.6629">
        <ele>735.0654297</ele>
        <time>2014-05-17T10:31:28Z</time>
      </trkpt>
      <trkpt lat="44.32788" lon="2.66273">
        <ele>733.1425781</ele>
        <time>2014-05-17T10:31:32Z</time>
      </trkpt>
      <trkpt lat="44.32788" lon="2.66248">
        <ele>731.7004395</ele>
        <time>2014-05-17T10:31:37Z</time>
      </trkpt>
      <trkpt lat="44.32792" lon="2.66236">
        <ele>730.2585449</ele>
        <time>2014-05-17T10:31:40Z</time>
      </trkpt>
      <trkpt lat="44.32796" lon="2.66223">
        <ele>729.777832</ele>
        <time>2014-05-17T10:31:43Z</time>
      </trkpt>
      <trkpt lat="44.32801" lon="2.66206">
        <ele>729.2971191</ele>
        <time>2014-05-17T10:31:48Z</time>
      </trkpt>
      <trkpt lat="44.32807" lon="2.6619">
        <ele>728.8166504</ele>
        <time>2014-05-17T10:31:52Z</time>
      </trkpt>
      <trkpt lat="44.32818" lon="2.6618">
        <ele>727.3747559</ele>
        <time>2014-05-17T10:31:57Z</time>
      </trkpt>
      <trkpt lat="44.32828" lon="2.66167">
        <ele>728.3359375</ele>
        <time>2014-05-17T10:32:02Z</time>
      </trkpt>
      <trkpt lat="44.32838" lon="2.66157">
        <ele>728.3359375</ele>
        <time>2014-05-17T10:32:07Z</time>
      </trkpt>
      <trkpt lat="44.32849" lon="2.66148">
        <ele>730.2585449</ele>
        <time>2014-05-17T10:32:12Z</time>
      </trkpt>
      <trkpt lat="44.32864" lon="2.66138">
        <ele>730.7392578</ele>
        <time>2014-05-17T10:32:17Z</time>
      </trkpt>
      <trkpt lat="44.32877" lon="2.66132">
        <ele>730.7392578</ele>
        <time>2014-05-17T10:32:22Z</time>
      </trkpt>
      <trkpt lat="44.32897" lon="2.66126">
        <ele>730.2585449</ele>
        <time>2014-05-17T10:32:28Z</time>
      </trkpt>
      <trkpt lat="44.32912" lon="2.66121">
        <ele>731.2199707</ele>
        <time>2014-05-17T10:32:33Z</time>
      </trkpt>
      <trkpt lat="44.32932" lon="2.66115">
        <ele>726.4133301</ele>
        <time>2014-05-17T10:32:40Z</time>
      </trkpt>
      <trkpt lat="44.32947" lon="2.66111">
        <ele>723.529541</ele>
        <time>2014-05-17T10:32:45Z</time>
      </trkpt>
      <trkpt lat="44.32958" lon="2.66109">
        <ele>722.0874023</ele>
        <time>2014-05-17T10:32:49Z</time>
      </trkpt>
      <trkpt lat="44.32975" lon="2.66111">
        <ele>723.0488281</ele>
        <time>2014-05-17T10:32:53Z</time>
      </trkpt>
      <trkpt lat="44.32992" lon="2.66116">
        <ele>724.9714355</ele>
        <time>2014-05-17T10:32:58Z</time>
      </trkpt>
      <trkpt lat="44.33011" lon="2.66112">
        <ele>724.9714355</ele>
        <time>2014-05-17T10:33:04Z</time>
      </trkpt>
      <trkpt lat="44.33024" lon="2.66104">
        <ele>723.529541</ele>
        <time>2014-05-17T10:33:09Z</time>
      </trkpt>
      <trkpt lat="44.33043" lon="2.66093">
        <ele>719.2036133</ele>
        <time>2014-05-17T10:33:15Z</time>
      </trkpt>
      <trkpt lat="44.33053" lon="2.66085">
        <ele>716.800293</ele>
        <time>2014-05-17T10:33:19Z</time>
      </trkpt>
      <trkpt lat="44.33063" lon="2.66077">
        <ele>714.3967285</ele>
        <time>2014-05-17T10:33:23Z</time>
      </trkpt>
      <trkpt lat="44.33076" lon="2.66066">
        <ele>712.4741211</ele>
        <time>2014-05-17T10:33:28Z</time>
      </trkpt>
      <trkpt lat="44.3309" lon="2.66056">
        <ele>711.9936523</ele>
        <time>2014-05-17T10:33:33Z</time>
      </trkpt>
      <trkpt lat="44.331" lon="2.6605">
        <ele>709.590332</ele>
        <time>2014-05-17T10:33:37Z</time>
      </trkpt>
      <trkpt lat="44.33117" lon="2.66043">
        <ele>708.6289063</ele>
        <time>2014-05-17T10:33:42Z</time>
      </trkpt>
      <trkpt lat="44.33132" lon="2.66031">
        <ele>706.7062988</ele>
        <time>2014-05-17T10:33:47Z</time>
      </trkpt>
      <trkpt lat="44.33143" lon="2.66018">
        <ele>704.3032227</ele>
        <time>2014-05-17T10:33:52Z</time>
      </trkpt>
      <trkpt lat="44.33158" lon="2.66004">
        <ele>699.9770508</ele>
        <time>2014-05-17T10:33:58Z</time>
      </trkpt>
      <trkpt lat="44.33161" lon="2.66002">
        <ele>699.4963379</ele>
        <time>2014-05-17T10:33:59Z</time>
      </trkpt>
      <trkpt lat="44.33164" lon="2.65996">
        <ele>698.0544434</ele>
        <time>2014-05-17T10:34:01Z</time>
      </trkpt>
      <trkpt lat="44.33159" lon="2.65977">
        <ele>700.4580078</ele>
        <time>2014-05-17T10:34:05Z</time>
      </trkpt>
      <trkpt lat="44.33144" lon="2.6596">
        <ele>701.4191895</ele>
        <time>2014-05-17T10:34:11Z</time>
      </trkpt>
      <trkpt lat="44.33131" lon="2.65951">
        <ele>700.4580078</ele>
        <time>2014-05-17T10:34:16Z</time>
      </trkpt>
      <trkpt lat="44.33114" lon="2.65943">
        <ele>695.651123</ele>
        <time>2014-05-17T10:34:22Z</time>
      </trkpt>
      <trkpt lat="44.33105" lon="2.65942">
        <ele>691.8059082</ele>
        <time>2014-05-17T10:34:26Z</time>
      </trkpt>
      <trkpt lat="44.33091" lon="2.65938">
        <ele>690.3640137</ele>
        <time>2014-05-17T10:34:30Z</time>
      </trkpt>
      <trkpt lat="44.33078" lon="2.65918">
        <ele>689.8833008</ele>
        <time>2014-05-17T10:34:36Z</time>
      </trkpt>
      <trkpt lat="44.3307" lon="2.659">
        <ele>692.2866211</ele>
        <time>2014-05-17T10:34:41Z</time>
      </trkpt>
      <trkpt lat="44.33068" lon="2.65878">
        <ele>691.3251953</ele>
        <time>2014-05-17T10:34:46Z</time>
      </trkpt>
      <trkpt lat="44.33064" lon="2.65863">
        <ele>689.8833008</ele>
        <time>2014-05-17T10:34:50Z</time>
      </trkpt>
      <trkpt lat="44.33055" lon="2.6584">
        <ele>689.4025879</ele>
        <time>2014-05-17T10:34:56Z</time>
      </trkpt>
      <trkpt lat="44.33045" lon="2.65822">
        <ele>687.9606934</ele>
        <time>2014-05-17T10:35:01Z</time>
      </trkpt>
      <trkpt lat="44.3304" lon="2.65802">
        <ele>686.9992676</ele>
        <time>2014-05-17T10:35:06Z</time>
      </trkpt>
      <trkpt lat="44.3304" lon="2.65781">
        <ele>684.5961914</ele>
        <time>2014-05-17T10:35:11Z</time>
      </trkpt>
      <trkpt lat="44.33049" lon="2.65767">
        <ele>682.192627</ele>
        <time>2014-05-17T10:35:15Z</time>
      </trkpt>
      <trkpt lat="44.33057" lon="2.65759">
        <ele>679.7893066</ele>
        <time>2014-05-17T10:35:18Z</time>
      </trkpt>
      <trkpt lat="44.33069" lon="2.65751">
        <ele>677.8666992</ele>
        <time>2014-05-17T10:35:22Z</time>
      </trkpt>
      <trkpt lat="44.33085" lon="2.65746">
        <ele>677.3862305</ele>
        <time>2014-05-17T10:35:27Z</time>
      </trkpt>
      <trkpt lat="44.33103" lon="2.65739">
        <ele>675.4633789</ele>
        <time>2014-05-17T10:35:33Z</time>
      </trkpt>
      <trkpt lat="44.33118" lon="2.65729">
        <ele>674.9829102</ele>
        <time>2014-05-17T10:35:38Z</time>
      </trkpt>
      <trkpt lat="44.33132" lon="2.65716">
        <ele>674.9829102</ele>
        <time>2014-05-17T10:35:44Z</time>
      </trkpt>
      <trkpt lat="44.33142" lon="2.65708">
        <ele>674.5021973</ele>
        <time>2014-05-17T10:35:48Z</time>
      </trkpt>
      <trkpt lat="44.33153" lon="2.65694">
        <ele>673.0603027</ele>
        <time>2014-05-17T10:35:53Z</time>
      </trkpt>
      <trkpt lat="44.33168" lon="2.65679">
        <ele>672.5795898</ele>
        <time>2014-05-17T10:35:59Z</time>
      </trkpt>
      <trkpt lat="44.33177" lon="2.6567">
        <ele>672.5795898</ele>
        <time>2014-05-17T10:36:03Z</time>
      </trkpt>
      <trkpt lat="44.33189" lon="2.65656">
        <ele>673.0603027</ele>
        <time>2014-05-17T10:36:08Z</time>
      </trkpt>
      <trkpt lat="44.33202" lon="2.65639">
        <ele>673.0603027</ele>
        <time>2014-05-17T10:36:14Z</time>
      </trkpt>
      <trkpt lat="44.33213" lon="2.65622">
        <ele>671.6181641</ele>
        <time>2014-05-17T10:36:19Z</time>
      </trkpt>
      <trkpt lat="44.33221" lon="2.65609">
        <ele>669.6958008</ele>
        <time>2014-05-17T10:36:23Z</time>
      </trkpt>
      <trkpt lat="44.33236" lon="2.65586">
        <ele>669.2150879</ele>
        <time>2014-05-17T10:36:30Z</time>
      </trkpt>
      <trkpt lat="44.33249" lon="2.65566">
        <ele>668.2536621</ele>
        <time>2014-05-17T10:36:36Z</time>
      </trkpt>
      <trkpt lat="44.3326" lon="2.65545">
        <ele>667.7727051</ele>
        <time>2014-05-17T10:36:42Z</time>
      </trkpt>
      <trkpt lat="44.33269" lon="2.65528">
        <ele>667.7727051</ele>
        <time>2014-05-17T10:36:47Z</time>
      </trkpt>
      <trkpt lat="44.3328" lon="2.65512">
        <ele>665.8503418</ele>
        <time>2014-05-17T10:36:52Z</time>
      </trkpt>
      <trkpt lat="44.33293" lon="2.65494">
        <ele>665.8503418</ele>
        <time>2014-05-17T10:36:58Z</time>
      </trkpt>
      <trkpt lat="44.33305" lon="2.65476">
        <ele>664.888916</ele>
        <time>2014-05-17T10:37:04Z</time>
      </trkpt>
      <trkpt lat="44.33316" lon="2.65462">
        <ele>665.3696289</ele>
        <time>2014-05-17T10:37:09Z</time>
      </trkpt>
      <trkpt lat="44.3333" lon="2.65447">
        <ele>664.4082031</ele>
        <time>2014-05-17T10:37:15Z</time>
      </trkpt>
      <trkpt lat="44.33341" lon="2.65436">
        <ele>663.4470215</ele>
        <time>2014-05-17T10:37:20Z</time>
      </trkpt>
      <trkpt lat="44.33351" lon="2.65427">
        <ele>662.005127</ele>
        <time>2014-05-17T10:37:24Z</time>
      </trkpt>
      <trkpt lat="44.33362" lon="2.65415">
        <ele>660.5629883</ele>
        <time>2014-05-17T10:37:29Z</time>
      </trkpt>
      <trkpt lat="44.33377" lon="2.65399">
        <ele>660.0822754</ele>
        <time>2014-05-17T10:37:35Z</time>
      </trkpt>
      <trkpt lat="44.3339" lon="2.65383">
        <ele>661.0437012</ele>
        <time>2014-05-17T10:37:41Z</time>
      </trkpt>
      <trkpt lat="44.33403" lon="2.65368">
        <ele>661.5244141</ele>
        <time>2014-05-17T10:37:47Z</time>
      </trkpt>
      <trkpt lat="44.33415" lon="2.65352">
        <ele>661.5244141</ele>
        <time>2014-05-17T10:37:53Z</time>
      </trkpt>
      <trkpt lat="44.33427" lon="2.65336">
        <ele>661.0437012</ele>
        <time>2014-05-17T10:37:59Z</time>
      </trkpt>
      <trkpt lat="44.33435" lon="2.65325">
        <ele>661.0437012</ele>
        <time>2014-05-17T10:38:03Z</time>
      </trkpt>
      <trkpt lat="44.33447" lon="2.65311">
        <ele>661.0437012</ele>
        <time>2014-05-17T10:38:09Z</time>
      </trkpt>
      <trkpt lat="44.33457" lon="2.65299">
        <ele>661.5244141</ele>
        <time>2014-05-17T10:38:14Z</time>
      </trkpt>
      <trkpt lat="44.33465" lon="2.65289">
        <ele>662.9663086</ele>
        <time>2014-05-17T10:38:18Z</time>
      </trkpt>
      <trkpt lat="44.33477" lon="2.65272">
        <ele>662.9663086</ele>
        <time>2014-05-17T10:38:24Z</time>
      </trkpt>
      <trkpt lat="44.33493" lon="2.65252">
        <ele>663.9274902</ele>
        <time>2014-05-17T10:38:31Z</time>
      </trkpt>
      <trkpt lat="44.33502" lon="2.65239">
        <ele>665.3696289</ele>
        <time>2014-05-17T10:38:36Z</time>
      </trkpt>
      <trkpt lat="44.33512" lon="2.65227">
        <ele>666.8115234</ele>
        <time>2014-05-17T10:38:41Z</time>
      </trkpt>
      <trkpt lat="44.33524" lon="2.6521">
        <ele>667.2922363</ele>
        <time>2014-05-17T10:38:47Z</time>
      </trkpt>
      <trkpt lat="44.33536" lon="2.65194">
        <ele>667.2922363</ele>
        <time>2014-05-17T10:38:53Z</time>
      </trkpt>
      <trkpt lat="44.33548" lon="2.65178">
        <ele>667.7727051</ele>
        <time>2014-05-17T10:38:59Z</time>
      </trkpt>
      <trkpt lat="44.3356" lon="2.65165">
        <ele>668.734375</ele>
        <time>2014-05-17T10:39:04Z</time>
      </trkpt>
      <trkpt lat="44.33574" lon="2.6515">
        <ele>669.6958008</ele>
        <time>2014-05-17T10:39:10Z</time>
      </trkpt>
      <trkpt lat="44.33586" lon="2.65138">
        <ele>670.1762695</ele>
        <time>2014-05-17T10:39:15Z</time>
      </trkpt>
      <trkpt lat="44.336" lon="2.65124">
        <ele>670.1762695</ele>
        <time>2014-05-17T10:39:21Z</time>
      </trkpt>
      <trkpt lat="44.33595" lon="2.65107">
        <ele>667.7727051</ele>
        <time>2014-05-17T10:39:26Z</time>
      </trkpt>
      <trkpt lat="44.33593" lon="2.65105">
        <ele>667.2922363</ele>
        <time>2014-05-17T10:39:27Z</time>
      </trkpt>
      <trkpt lat="44.33576" lon="2.65096">
        <ele>666.8115234</ele>
        <time>2014-05-17T10:39:33Z</time>
      </trkpt>
      <trkpt lat="44.33563" lon="2.65086">
        <ele>667.2922363</ele>
        <time>2014-05-17T10:39:38Z</time>
      </trkpt>
      <trkpt lat="44.3355" lon="2.65078">
        <ele>668.2536621</ele>
        <time>2014-05-17T10:39:43Z</time>
      </trkpt>
      <trkpt lat="44.33537" lon="2.65069">
        <ele>669.2150879</ele>
        <time>2014-05-17T10:39:48Z</time>
      </trkpt>
      <trkpt lat="44.33522" lon="2.65062">
        <ele>669.2150879</ele>
        <time>2014-05-17T10:39:53Z</time>
      </trkpt>
      <trkpt lat="44.33507" lon="2.65053">
        <ele>670.1762695</ele>
        <time>2014-05-17T10:39:58Z</time>
      </trkpt>
      <trkpt lat="44.33493" lon="2.65044">
        <ele>671.1376953</ele>
        <time>2014-05-17T10:40:03Z</time>
      </trkpt>
      <trkpt lat="44.33476" lon="2.65034">
        <ele>671.1376953</ele>
        <time>2014-05-17T10:40:09Z</time>
      </trkpt>
      <trkpt lat="44.3346" lon="2.65028">
        <ele>671.1376953</ele>
        <time>2014-05-17T10:40:14Z</time>
      </trkpt>
      <trkpt lat="44.33447" lon="2.65018">
        <ele>670.6569824</ele>
        <time>2014-05-17T10:40:19Z</time>
      </trkpt>
      <trkpt lat="44.3345" lon="2.64996">
        <ele>668.734375</ele>
        <time>2014-05-17T10:40:24Z</time>
      </trkpt>
      <trkpt lat="44.33457" lon="2.64971">
        <ele>667.7727051</ele>
        <time>2014-05-17T10:40:30Z</time>
      </trkpt>
      <trkpt lat="44.33463" lon="2.64948">
        <ele>666.3308105</ele>
        <time>2014-05-17T10:40:36Z</time>
      </trkpt>
      <trkpt lat="44.33468" lon="2.64928">
        <ele>664.888916</ele>
        <time>2014-05-17T10:40:41Z</time>
      </trkpt>
      <trkpt lat="44.33474" lon="2.64904">
        <ele>664.888916</ele>
        <time>2014-05-17T10:40:47Z</time>
      </trkpt>
      <trkpt lat="44.33479" lon="2.64883">
        <ele>664.4082031</ele>
        <time>2014-05-17T10:40:52Z</time>
      </trkpt>
      <trkpt lat="44.33484" lon="2.64863">
        <ele>663.4470215</ele>
        <time>2014-05-17T10:40:57Z</time>
      </trkpt>
      <trkpt lat="44.33489" lon="2.64837">
        <ele>662.4855957</ele>
        <time>2014-05-17T10:41:03Z</time>
      </trkpt>
      <trkpt lat="44.33494" lon="2.64818">
        <ele>662.005127</ele>
        <time>2014-05-17T10:41:08Z</time>
      </trkpt>
      <trkpt lat="44.33499" lon="2.64798">
        <ele>661.0437012</ele>
        <time>2014-05-17T10:41:13Z</time>
      </trkpt>
      <trkpt lat="44.33507" lon="2.6478">
        <ele>660.0822754</ele>
        <time>2014-05-17T10:41:18Z</time>
      </trkpt>
      <trkpt lat="44.33511" lon="2.64761">
        <ele>660.5629883</ele>
        <time>2014-05-17T10:41:23Z</time>
      </trkpt>
      <trkpt lat="44.33515" lon="2.6474">
        <ele>660.5629883</ele>
        <time>2014-05-17T10:41:28Z</time>
      </trkpt>
      <trkpt lat="44.3352" lon="2.64719">
        <ele>660.5629883</ele>
        <time>2014-05-17T10:41:33Z</time>
      </trkpt>
      <trkpt lat="44.33524" lon="2.64698">
        <ele>660.5629883</ele>
        <time>2014-05-17T10:41:38Z</time>
      </trkpt>
      <trkpt lat="44.33527" lon="2.64678">
        <ele>660.0822754</ele>
        <time>2014-05-17T10:41:43Z</time>
      </trkpt>
      <trkpt lat="44.33532" lon="2.64654">
        <ele>659.1210938</ele>
        <time>2014-05-17T10:41:49Z</time>
      </trkpt>
      <trkpt lat="44.33533" lon="2.64654">
        <ele>658.1599121</ele>
        <time>2014-05-17T10:41:53Z</time>
      </trkpt>
      <trkpt lat="44.33535" lon="2.64647">
        <ele>657.6791992</ele>
        <time>2014-05-17T10:42:00Z</time>
      </trkpt>
      <trkpt lat="44.33539" lon="2.64627">
        <ele>656.7177734</ele>
        <time>2014-05-17T10:42:05Z</time>
      </trkpt>
      <trkpt lat="44.33544" lon="2.64608">
        <ele>655.2758789</ele>
        <time>2014-05-17T10:42:10Z</time>
      </trkpt>
      <trkpt lat="44.33552" lon="2.64589">
        <ele>652.8725586</ele>
        <time>2014-05-17T10:42:15Z</time>
      </trkpt>
      <trkpt lat="44.33559" lon="2.64571">
        <ele>651.9111328</ele>
        <time>2014-05-17T10:42:20Z</time>
      </trkpt>
      <trkpt lat="44.33567" lon="2.64552">
        <ele>650.4692383</ele>
        <time>2014-05-17T10:42:25Z</time>
      </trkpt>
      <trkpt lat="44.33574" lon="2.64539">
        <ele>649.0270996</ele>
        <time>2014-05-17T10:42:29Z</time>
      </trkpt>
      <trkpt lat="44.33583" lon="2.64516">
        <ele>645.6625977</ele>
        <time>2014-05-17T10:42:36Z</time>
      </trkpt>
      <trkpt lat="44.33592" lon="2.64505">
        <ele>644.2207031</ele>
        <time>2014-05-17T10:42:41Z</time>
      </trkpt>
      <trkpt lat="44.33603" lon="2.64499">
        <ele>643.2592773</ele>
        <time>2014-05-17T10:42:45Z</time>
      </trkpt>
      <trkpt lat="44.33614" lon="2.64496">
        <ele>643.2592773</ele>
        <time>2014-05-17T10:42:49Z</time>
      </trkpt>
      <trkpt lat="44.33624" lon="2.64486">
        <ele>643.7399902</ele>
        <time>2014-05-17T10:42:54Z</time>
      </trkpt>
      <trkpt lat="44.3363" lon="2.64472">
        <ele>643.2592773</ele>
        <time>2014-05-17T10:42:59Z</time>
      </trkpt>
      <trkpt lat="44.33633" lon="2.64456">
        <ele>643.7399902</ele>
        <time>2014-05-17T10:43:03Z</time>
      </trkpt>
      <trkpt lat="44.33636" lon="2.64431">
        <ele>647.1044922</ele>
        <time>2014-05-17T10:43:09Z</time>
      </trkpt>
      <trkpt lat="44.33639" lon="2.64406">
        <ele>648.5463867</ele>
        <time>2014-05-17T10:43:15Z</time>
      </trkpt>
      <trkpt lat="44.33641" lon="2.64382">
        <ele>650.4692383</ele>
        <time>2014-05-17T10:43:21Z</time>
      </trkpt>
      <trkpt lat="44.33642" lon="2.64361">
        <ele>651.4304199</ele>
        <time>2014-05-17T10:43:26Z</time>
      </trkpt>
      <trkpt lat="44.33645" lon="2.64336">
        <ele>651.4304199</ele>
        <time>2014-05-17T10:43:32Z</time>
      </trkpt>
      <trkpt lat="44.33647" lon="2.64316">
        <ele>651.9111328</ele>
        <time>2014-05-17T10:43:37Z</time>
      </trkpt>
      <trkpt lat="44.3365" lon="2.64296">
        <ele>650.949707</ele>
        <time>2014-05-17T10:43:42Z</time>
      </trkpt>
      <trkpt lat="44.33654" lon="2.64272">
        <ele>650.949707</ele>
        <time>2014-05-17T10:43:48Z</time>
      </trkpt>
      <trkpt lat="44.33659" lon="2.64252">
        <ele>651.4304199</ele>
        <time>2014-05-17T10:43:53Z</time>
      </trkpt>
      <trkpt lat="44.33663" lon="2.64233">
        <ele>651.4304199</ele>
        <time>2014-05-17T10:43:58Z</time>
      </trkpt>
      <trkpt lat="44.3367" lon="2.64211">
        <ele>649.5078125</ele>
        <time>2014-05-17T10:44:04Z</time>
      </trkpt>
      <trkpt lat="44.33677" lon="2.64195">
        <ele>649.0270996</ele>
        <time>2014-05-17T10:44:09Z</time>
      </trkpt>
      <trkpt lat="44.33684" lon="2.64177">
        <ele>649.0270996</ele>
        <time>2014-05-17T10:44:14Z</time>
      </trkpt>
      <trkpt lat="44.33694" lon="2.64161">
        <ele>649.5078125</ele>
        <time>2014-05-17T10:44:20Z</time>
      </trkpt>
      <trkpt lat="44.33702" lon="2.64147">
        <ele>651.9111328</ele>
        <time>2014-05-17T10:44:25Z</time>
      </trkpt>
      <trkpt lat="44.33712" lon="2.64135">
        <ele>652.3918457</ele>
        <time>2014-05-17T10:44:30Z</time>
      </trkpt>
      <trkpt lat="44.33718" lon="2.64127">
        <ele>653.8339844</ele>
        <time>2014-05-17T10:44:34Z</time>
      </trkpt>
      <trkpt lat="44.33729" lon="2.64114">
        <ele>654.795166</ele>
        <time>2014-05-17T10:44:40Z</time>
      </trkpt>
      <trkpt lat="44.33736" lon="2.64104">
        <ele>655.2758789</ele>
        <time>2014-05-17T10:44:44Z</time>
      </trkpt>
      <trkpt lat="44.33748" lon="2.64091">
        <ele>655.7565918</ele>
        <time>2014-05-17T10:44:50Z</time>
      </trkpt>
      <trkpt lat="44.33756" lon="2.64078">
        <ele>657.1984863</ele>
        <time>2014-05-17T10:44:55Z</time>
      </trkpt>
      <trkpt lat="44.33761" lon="2.64067">
        <ele>657.6791992</ele>
        <time>2014-05-17T10:44:59Z</time>
      </trkpt>
      <trkpt lat="44.33764" lon="2.64051">
        <ele>659.1210938</ele>
        <time>2014-05-17T10:45:04Z</time>
      </trkpt>
      <trkpt lat="44.33763" lon="2.64039">
        <ele>660.0822754</ele>
        <time>2014-05-17T10:45:08Z</time>
      </trkpt>
      <trkpt lat="44.33754" lon="2.64032">
        <ele>660.0822754</ele>
        <time>2014-05-17T10:45:12Z</time>
      </trkpt>
      <trkpt lat="44.33746" lon="2.64028">
        <ele>658.1599121</ele>
        <time>2014-05-17T10:45:17Z</time>
      </trkpt>
      <trkpt lat="44.33744" lon="2.64026">
        <ele>657.6791992</ele>
        <time>2014-05-17T10:45:19Z</time>
      </trkpt>
      <trkpt lat="44.33737" lon="2.64021">
        <ele>656.7177734</ele>
        <time>2014-05-17T10:45:24Z</time>
      </trkpt>
      <trkpt lat="44.33736" lon="2.64018">
        <ele>656.7177734</ele>
        <time>2014-05-17T10:45:27Z</time>
      </trkpt>
      <trkpt lat="44.33734" lon="2.64014">
        <ele>656.2370605</ele>
        <time>2014-05-17T10:45:30Z</time>
      </trkpt>
      <trkpt lat="44.33729" lon="2.64">
        <ele>656.2370605</ele>
        <time>2014-05-17T10:45:36Z</time>
      </trkpt>
      <trkpt lat="44.3372" lon="2.63979">
        <ele>657.1984863</ele>
        <time>2014-05-17T10:45:43Z</time>
      </trkpt>
      <trkpt lat="44.33715" lon="2.63961">
        <ele>657.1984863</ele>
        <time>2014-05-17T10:45:48Z</time>
      </trkpt>
      <trkpt lat="44.33709" lon="2.63938">
        <ele>658.1599121</ele>
        <time>2014-05-17T10:45:54Z</time>
      </trkpt>
      <trkpt lat="44.33703" lon="2.63914">
        <ele>659.6018066</ele>
        <time>2014-05-17T10:46:00Z</time>
      </trkpt>
      <trkpt lat="44.33696" lon="2.63883">
        <ele>658.6403809</ele>
        <time>2014-05-17T10:46:08Z</time>
      </trkpt>
      <trkpt lat="44.33689" lon="2.6386">
        <ele>659.6018066</ele>
        <time>2014-05-17T10:46:14Z</time>
      </trkpt>
      <trkpt lat="44.33683" lon="2.63842">
        <ele>660.0822754</ele>
        <time>2014-05-17T10:46:19Z</time>
      </trkpt>
      <trkpt lat="44.3368" lon="2.63829">
        <ele>659.1210938</ele>
        <time>2014-05-17T10:46:24Z</time>
      </trkpt>
      <trkpt lat="44.33679" lon="2.63828">
        <ele>658.6403809</ele>
        <time>2014-05-17T10:46:29Z</time>
      </trkpt>
      <trkpt lat="44.33677" lon="2.63816">
        <ele>659.1210938</ele>
        <time>2014-05-17T10:46:33Z</time>
      </trkpt>
      <trkpt lat="44.33671" lon="2.63799">
        <ele>660.5629883</ele>
        <time>2014-05-17T10:46:38Z</time>
      </trkpt>
      <trkpt lat="44.33665" lon="2.63781">
        <ele>660.0822754</ele>
        <time>2014-05-17T10:46:43Z</time>
      </trkpt>
      <trkpt lat="44.33658" lon="2.63755">
        <ele>659.1210938</ele>
        <time>2014-05-17T10:46:50Z</time>
      </trkpt>
      <trkpt lat="44.33652" lon="2.63737">
        <ele>658.6403809</ele>
        <time>2014-05-17T10:46:55Z</time>
      </trkpt>
      <trkpt lat="44.33644" lon="2.63721">
        <ele>656.7177734</ele>
        <time>2014-05-17T10:47:00Z</time>
      </trkpt>
      <trkpt lat="44.33633" lon="2.63704">
        <ele>655.2758789</ele>
        <time>2014-05-17T10:47:06Z</time>
      </trkpt>
      <trkpt lat="44.33619" lon="2.63684">
        <ele>654.795166</ele>
        <time>2014-05-17T10:47:13Z</time>
      </trkpt>
      <trkpt lat="44.33607" lon="2.63672">
        <ele>653.8339844</ele>
        <time>2014-05-17T10:47:18Z</time>
      </trkpt>
      <trkpt lat="44.33597" lon="2.6366">
        <ele>652.8725586</ele>
        <time>2014-05-17T10:47:23Z</time>
      </trkpt>
      <trkpt lat="44.33588" lon="2.63649">
        <ele>651.4304199</ele>
        <time>2014-05-17T10:47:27Z</time>
      </trkpt>
      <trkpt lat="44.33579" lon="2.63634">
        <ele>649.5078125</ele>
        <time>2014-05-17T10:47:32Z</time>
      </trkpt>
      <trkpt lat="44.33568" lon="2.63616">
        <ele>648.5463867</ele>
        <time>2014-05-17T10:47:38Z</time>
      </trkpt>
      <trkpt lat="44.33559" lon="2.63595">
        <ele>649.0270996</ele>
        <time>2014-05-17T10:47:44Z</time>
      </trkpt>
      <trkpt lat="44.33552" lon="2.63576">
        <ele>650.4692383</ele>
        <time>2014-05-17T10:47:49Z</time>
      </trkpt>
      <trkpt lat="44.33546" lon="2.63556">
        <ele>651.4304199</ele>
        <time>2014-05-17T10:47:54Z</time>
      </trkpt>
      <trkpt lat="44.33537" lon="2.6354">
        <ele>649.9885254</ele>
        <time>2014-05-17T10:47:59Z</time>
      </trkpt>
      <trkpt lat="44.33523" lon="2.63522">
        <ele>647.5852051</ele>
        <time>2014-05-17T10:48:05Z</time>
      </trkpt>
      <trkpt lat="44.33513" lon="2.63512">
        <ele>644.7011719</ele>
        <time>2014-05-17T10:48:09Z</time>
      </trkpt>
      <trkpt lat="44.33506" lon="2.63499">
        <ele>642.2980957</ele>
        <time>2014-05-17T10:48:13Z</time>
      </trkpt>
      <trkpt lat="44.33507" lon="2.63476">
        <ele>638.9335938</ele>
        <time>2014-05-17T10:48:19Z</time>
      </trkpt>
      <trkpt lat="44.33506" lon="2.63457">
        <ele>635.0881348</ele>
        <time>2014-05-17T10:48:24Z</time>
      </trkpt>
      <trkpt lat="44.33503" lon="2.63441">
        <ele>632.6848145</ele>
        <time>2014-05-17T10:48:28Z</time>
      </trkpt>
      <trkpt lat="44.33501" lon="2.63425">
        <ele>631.2429199</ele>
        <time>2014-05-17T10:48:32Z</time>
      </trkpt>
      <trkpt lat="44.33496" lon="2.63405">
        <ele>630.2814941</ele>
        <time>2014-05-17T10:48:37Z</time>
      </trkpt>
      <trkpt lat="44.33493" lon="2.63384">
        <ele>630.762207</ele>
        <time>2014-05-17T10:48:42Z</time>
      </trkpt>
      <trkpt lat="44.33493" lon="2.63369">
        <ele>630.762207</ele>
        <time>2014-05-17T10:48:46Z</time>
      </trkpt>
      <trkpt lat="44.33494" lon="2.63344">
        <ele>630.762207</ele>
        <time>2014-05-17T10:48:52Z</time>
      </trkpt>
      <trkpt lat="44.33492" lon="2.6332">
        <ele>630.762207</ele>
        <time>2014-05-17T10:48:57Z</time>
      </trkpt>
      <trkpt lat="44.3349" lon="2.63305">
        <ele>630.2814941</ele>
        <time>2014-05-17T10:49:01Z</time>
      </trkpt>
      <trkpt lat="44.33495" lon="2.63292">
        <ele>630.2814941</ele>
        <time>2014-05-17T10:49:05Z</time>
      </trkpt>
      <trkpt lat="44.33502" lon="2.63268">
        <ele>631.7233887</ele>
        <time>2014-05-17T10:49:12Z</time>
      </trkpt>
      <trkpt lat="44.33508" lon="2.63252">
        <ele>632.2041016</ele>
        <time>2014-05-17T10:49:17Z</time>
      </trkpt>
      <trkpt lat="44.33514" lon="2.63234">
        <ele>631.7233887</ele>
        <time>2014-05-17T10:49:23Z</time>
      </trkpt>
      <trkpt lat="44.33517" lon="2.63219">
        <ele>632.2041016</ele>
        <time>2014-05-17T10:49:27Z</time>
      </trkpt>
      <trkpt lat="44.33521" lon="2.63204">
        <ele>633.1652832</ele>
        <time>2014-05-17T10:49:31Z</time>
      </trkpt>
      <trkpt lat="44.33525" lon="2.63188">
        <ele>634.6074219</ele>
        <time>2014-05-17T10:49:36Z</time>
      </trkpt>
      <trkpt lat="44.3353" lon="2.63171">
        <ele>635.0881348</ele>
        <time>2014-05-17T10:49:41Z</time>
      </trkpt>
      <trkpt lat="44.33536" lon="2.6315">
        <ele>636.0495605</ele>
        <time>2014-05-17T10:49:47Z</time>
      </trkpt>
      <trkpt lat="44.33544" lon="2.63133">
        <ele>635.0881348</ele>
        <time>2014-05-17T10:49:52Z</time>
      </trkpt>
      <trkpt lat="44.33551" lon="2.63118">
        <ele>633.6459961</ele>
        <time>2014-05-17T10:49:57Z</time>
      </trkpt>
      <trkpt lat="44.33557" lon="2.63102">
        <ele>633.6459961</ele>
        <time>2014-05-17T10:50:02Z</time>
      </trkpt>
      <trkpt lat="44.33558" lon="2.63081">
        <ele>634.126709</ele>
        <time>2014-05-17T10:50:08Z</time>
      </trkpt>
      <trkpt lat="44.3356" lon="2.63065">
        <ele>635.0881348</ele>
        <time>2014-05-17T10:50:13Z</time>
      </trkpt>
      <trkpt lat="44.33562" lon="2.63047">
        <ele>635.0881348</ele>
        <time>2014-05-17T10:50:19Z</time>
      </trkpt>
      <trkpt lat="44.33562" lon="2.63043">
        <ele>635.5686035</ele>
        <time>2014-05-17T10:50:20Z</time>
      </trkpt>
      <trkpt lat="44.33569" lon="2.63036">
        <ele>637.972168</ele>
        <time>2014-05-17T10:50:26Z</time>
      </trkpt>
      <trkpt lat="44.33575" lon="2.63034">
        <ele>641.3366699</ele>
        <time>2014-05-17T10:50:32Z</time>
      </trkpt>
      <trkpt lat="44.33577" lon="2.63035">
        <ele>641.3366699</ele>
        <time>2014-05-17T10:50:33Z</time>
      </trkpt>
      <trkpt lat="44.33586" lon="2.63045">
        <ele>642.2980957</ele>
        <time>2014-05-17T10:50:40Z</time>
      </trkpt>
      <trkpt lat="44.33591" lon="2.63051">
        <ele>642.7788086</ele>
        <time>2014-05-17T10:50:48Z</time>
      </trkpt>
      <trkpt lat="44.33595" lon="2.63053">
        <ele>643.2592773</ele>
        <time>2014-05-17T10:50:54Z</time>
      </trkpt>
      <trkpt lat="44.33599" lon="2.63054">
        <ele>644.2207031</ele>
        <time>2014-05-17T10:51:01Z</time>
      </trkpt>
      <trkpt lat="44.33595" lon="2.63051">
        <ele>643.7399902</ele>
        <time>2014-05-17T10:51:06Z</time>
      </trkpt>
      <trkpt lat="44.33595" lon="2.63045">
        <ele>643.2592773</ele>
        <time>2014-05-17T10:51:11Z</time>
      </trkpt>
      <trkpt lat="44.33597" lon="2.63038">
        <ele>643.2592773</ele>
        <time>2014-05-17T10:51:16Z</time>
      </trkpt>
      <trkpt lat="44.336" lon="2.63031">
        <ele>644.2207031</ele>
        <time>2014-05-17T10:51:22Z</time>
      </trkpt>
      <trkpt lat="44.33604" lon="2.63024">
        <ele>645.1818848</ele>
        <time>2014-05-17T10:51:28Z</time>
      </trkpt>
      <trkpt lat="44.33605" lon="2.63018">
        <ele>646.1433105</ele>
        <time>2014-05-17T10:51:33Z</time>
      </trkpt>
      <trkpt lat="44.33609" lon="2.63012">
        <ele>646.1433105</ele>
        <time>2014-05-17T10:51:39Z</time>
      </trkpt>
      <trkpt lat="44.33611" lon="2.63007">
        <ele>646.6240234</ele>
        <time>2014-05-17T10:51:43Z</time>
      </trkpt>
      <trkpt lat="44.33612" lon="2.62999">
        <ele>645.6625977</ele>
        <time>2014-05-17T10:51:47Z</time>
      </trkpt>
      <trkpt lat="44.33613" lon="2.62996">
        <ele>646.1433105</ele>
        <time>2014-05-17T10:51:49Z</time>
      </trkpt>
      <trkpt lat="44.33617" lon="2.62985">
        <ele>645.6625977</ele>
        <time>2014-05-17T10:51:55Z</time>
      </trkpt>
      <trkpt lat="44.33617" lon="2.6298">
        <ele>645.6625977</ele>
        <time>2014-05-17T10:51:58Z</time>
      </trkpt>
      <trkpt lat="44.33618" lon="2.62976">
        <ele>645.6625977</ele>
        <time>2014-05-17T10:52:01Z</time>
      </trkpt>
      <trkpt lat="44.3362" lon="2.6297">
        <ele>646.1433105</ele>
        <time>2014-05-17T10:52:05Z</time>
      </trkpt>
      <trkpt lat="44.33624" lon="2.62958">
        <ele>645.6625977</ele>
        <time>2014-05-17T10:52:13Z</time>
      </trkpt>
      <trkpt lat="44.33624" lon="2.62957">
        <ele>645.6625977</ele>
        <time>2014-05-17T10:52:14Z</time>
      </trkpt>
      <trkpt lat="44.33621" lon="2.62951">
        <ele>646.6240234</ele>
        <time>2014-05-17T10:52:21Z</time>
      </trkpt>
      <trkpt lat="44.33619" lon="2.62952">
        <ele>646.1433105</ele>
        <time>2014-05-17T10:52:26Z</time>
      </trkpt>
      <trkpt lat="44.33619" lon="2.62951">
        <ele>646.1433105</ele>
        <time>2014-05-17T10:52:31Z</time>
      </trkpt>
      <trkpt lat="44.33622" lon="2.62946">
        <ele>645.6625977</ele>
        <time>2014-05-17T10:52:36Z</time>
      </trkpt>
      <trkpt lat="44.33625" lon="2.62943">
        <ele>646.1433105</ele>
        <time>2014-05-17T10:52:41Z</time>
      </trkpt>
      <trkpt lat="44.33627" lon="2.62938">
        <ele>647.1044922</ele>
        <time>2014-05-17T10:52:46Z</time>
      </trkpt>
      <trkpt lat="44.33625" lon="2.62934">
        <ele>646.1433105</ele>
        <time>2014-05-17T10:52:51Z</time>
      </trkpt>
      <trkpt lat="44.33621" lon="2.62932">
        <ele>645.1818848</ele>
        <time>2014-05-17T10:52:55Z</time>
      </trkpt>
      <trkpt lat="44.33612" lon="2.62931">
        <ele>643.2592773</ele>
        <time>2014-05-17T10:53:01Z</time>
      </trkpt>
      <trkpt lat="44.33609" lon="2.62929">
        <ele>643.7399902</ele>
        <time>2014-05-17T10:53:04Z</time>
      </trkpt>
      <trkpt lat="44.336" lon="2.62927">
        <ele>645.1818848</ele>
        <time>2014-05-17T10:53:13Z</time>
      </trkpt>
      <trkpt lat="44.33599" lon="2.62927">
        <ele>646.6240234</ele>
        <time>2014-05-17T10:53:19Z</time>
      </trkpt>
      <trkpt lat="44.33601" lon="2.62921">
        <ele>646.1433105</ele>
        <time>2014-05-17T10:53:24Z</time>
      </trkpt>
      <trkpt lat="44.33601" lon="2.62919">
        <ele>646.6240234</ele>
        <time>2014-05-17T10:53:25Z</time>
      </trkpt>
      <trkpt lat="44.33599" lon="2.62913">
        <ele>645.6625977</ele>
        <time>2014-05-17T10:53:29Z</time>
      </trkpt>
      <trkpt lat="44.33591" lon="2.62914">
        <ele>645.1818848</ele>
        <time>2014-05-17T10:53:35Z</time>
      </trkpt>
      <trkpt lat="44.33588" lon="2.62917">
        <ele>646.1433105</ele>
        <time>2014-05-17T10:53:39Z</time>
      </trkpt>
      <trkpt lat="44.33586" lon="2.62919">
        <ele>648.065918</ele>
        <time>2014-05-17T10:53:49Z</time>
      </trkpt>
      <trkpt lat="44.33588" lon="2.62915">
        <ele>641.3366699</ele>
        <time>2014-05-17T10:53:56Z</time>
      </trkpt>
      <trkpt lat="44.33589" lon="2.62916">
        <ele>640.3754883</ele>
        <time>2014-05-17T10:53:58Z</time>
      </trkpt>
      <trkpt lat="44.33592" lon="2.62918">
        <ele>637.4914551</ele>
        <time>2014-05-17T10:54:01Z</time>
      </trkpt>
      <trkpt lat="44.33592" lon="2.6292">
        <ele>637.0107422</ele>
        <time>2014-05-17T10:54:05Z</time>
      </trkpt>
    </trkseg>
  </trk>
</gpx>